<?xml version="1.0" encoding="UTF-8" standalone="no" ?>
<gpx xmlns="http://www.topografix.com/GPX/1/1" xmlns:xsi="http://www.w3.org/2001/XMLSchema-instance" xsi:schemaLocation="http://www.topografix.com/GPX/1/1 http://www.topografix.com/GPX/1/1/gpx.xsd" version="1.1" creator="VisuGPX - https://www.visugpx.com">
  <metadata>
    <name>GS 2022-09-22 parcouru corrigé</name>
  </metadata>
  <trk>
    <name><![CDATA[GS 2022-09-22 parcouru corrigé_1]]></name>
    <extensions>
      <line xmlns="http://www.topografix.com/GPX/gpx_style/0/2">
        <color>0000FF</color>
        <width>4</width>
      </line>
    </extensions>
    <trkseg>
      <trkpt lat="50.39029" lon="4.45707">
        <ele>118</ele>
      </trkpt>
      <trkpt lat="50.39032" lon="4.45688">
        <ele>117</ele>
        <time>2022-09-22T11:35:02Z</time>
      </trkpt>
      <trkpt lat="50.39058" lon="4.45707">
        <ele>116.8</ele>
        <time>2022-09-22T11:35:08Z</time>
      </trkpt>
      <trkpt lat="50.39088" lon="4.45731">
        <ele>116.6</ele>
        <time>2022-09-22T11:35:15Z</time>
      </trkpt>
      <trkpt lat="50.391" lon="4.45735">
        <ele>116.6</ele>
        <time>2022-09-22T11:35:18Z</time>
      </trkpt>
      <trkpt lat="50.3911" lon="4.45734">
        <ele>116.4</ele>
        <time>2022-09-22T11:35:20Z</time>
      </trkpt>
      <trkpt lat="50.39115" lon="4.45731">
        <ele>116.2</ele>
        <time>2022-09-22T11:35:21Z</time>
      </trkpt>
      <trkpt lat="50.39119" lon="4.45726">
        <ele>116.2</ele>
        <time>2022-09-22T11:35:22Z</time>
      </trkpt>
      <trkpt lat="50.39174" lon="4.45594">
        <ele>114.6</ele>
        <time>2022-09-22T11:35:40Z</time>
      </trkpt>
      <trkpt lat="50.39169" lon="4.45586">
        <ele>114.4</ele>
        <time>2022-09-22T11:35:42Z</time>
      </trkpt>
      <trkpt lat="50.39101" lon="4.45537">
        <ele>114</ele>
        <time>2022-09-22T11:36:00Z</time>
      </trkpt>
      <trkpt lat="50.39078" lon="4.45523">
        <ele>114</ele>
        <time>2022-09-22T11:36:06Z</time>
      </trkpt>
      <trkpt lat="50.39058" lon="4.45513">
        <ele>113.8</ele>
        <time>2022-09-22T11:36:11Z</time>
      </trkpt>
      <trkpt lat="50.39017" lon="4.45495">
        <ele>113.8</ele>
        <time>2022-09-22T11:36:20Z</time>
      </trkpt>
      <trkpt lat="50.38977" lon="4.4548">
        <ele>113.6</ele>
        <time>2022-09-22T11:36:29Z</time>
      </trkpt>
      <trkpt lat="50.38957" lon="4.45467">
        <ele>114</ele>
        <time>2022-09-22T11:36:34Z</time>
      </trkpt>
      <trkpt lat="50.38932" lon="4.4546">
        <ele>113.6</ele>
        <time>2022-09-22T11:36:39Z</time>
      </trkpt>
      <trkpt lat="50.38845" lon="4.4542">
        <ele>114.4</ele>
        <time>2022-09-22T11:36:58Z</time>
      </trkpt>
      <trkpt lat="50.38794" lon="4.45402">
        <ele>115</ele>
        <time>2022-09-22T11:37:09Z</time>
      </trkpt>
      <trkpt lat="50.38773" lon="4.454">
        <ele>115</ele>
        <time>2022-09-22T11:37:14Z</time>
      </trkpt>
      <trkpt lat="50.38768" lon="4.45402">
        <ele>115</ele>
        <time>2022-09-22T11:37:15Z</time>
      </trkpt>
      <trkpt lat="50.38748" lon="4.45415">
        <ele>115.2</ele>
        <time>2022-09-22T11:37:19Z</time>
      </trkpt>
      <trkpt lat="50.38722" lon="4.45429">
        <ele>115.6</ele>
        <time>2022-09-22T11:37:25Z</time>
      </trkpt>
      <trkpt lat="50.387" lon="4.45437">
        <ele>115.6</ele>
        <time>2022-09-22T11:37:30Z</time>
      </trkpt>
      <trkpt lat="50.38692" lon="4.45438">
        <ele>115.8</ele>
        <time>2022-09-22T11:37:32Z</time>
      </trkpt>
      <trkpt lat="50.38689" lon="4.45437">
        <ele>115.8</ele>
        <time>2022-09-22T11:37:33Z</time>
      </trkpt>
      <trkpt lat="50.3865" lon="4.45443">
        <ele>116.8</ele>
        <time>2022-09-22T11:37:41Z</time>
      </trkpt>
      <trkpt lat="50.38622" lon="4.45446">
        <ele>117</ele>
        <time>2022-09-22T11:37:47Z</time>
      </trkpt>
      <trkpt lat="50.38591" lon="4.45444">
        <ele>117.6</ele>
        <time>2022-09-22T11:37:54Z</time>
      </trkpt>
      <trkpt lat="50.38583" lon="4.45441">
        <ele>117.8</ele>
        <time>2022-09-22T11:37:56Z</time>
      </trkpt>
      <trkpt lat="50.38581" lon="4.45438">
        <ele>118</ele>
        <time>2022-09-22T11:37:57Z</time>
      </trkpt>
      <trkpt lat="50.38577" lon="4.45436">
        <ele>118</ele>
        <time>2022-09-22T11:37:58Z</time>
      </trkpt>
      <trkpt lat="50.38563" lon="4.45434">
        <ele>118.2</ele>
        <time>2022-09-22T11:38:01Z</time>
      </trkpt>
      <trkpt lat="50.38496" lon="4.45412">
        <ele>120.6</ele>
        <time>2022-09-22T11:38:18Z</time>
      </trkpt>
      <trkpt lat="50.38465" lon="4.45398">
        <ele>122</ele>
        <time>2022-09-22T11:38:26Z</time>
      </trkpt>
      <trkpt lat="50.38434" lon="4.45381">
        <ele>123.2</ele>
        <time>2022-09-22T11:38:34Z</time>
      </trkpt>
      <trkpt lat="50.38373" lon="4.45342">
        <ele>125.8</ele>
        <time>2022-09-22T11:38:51Z</time>
      </trkpt>
      <trkpt lat="50.38349" lon="4.45331">
        <ele>126.8</ele>
        <time>2022-09-22T11:38:58Z</time>
      </trkpt>
      <trkpt lat="50.38336" lon="4.45323">
        <ele>127.4</ele>
        <time>2022-09-22T11:39:03Z</time>
      </trkpt>
      <trkpt lat="50.38336" lon="4.45315">
        <ele>127.6</ele>
        <time>2022-09-22T11:39:05Z</time>
      </trkpt>
      <trkpt lat="50.38362" lon="4.45145">
        <ele>130.2</ele>
        <time>2022-09-22T11:39:42Z</time>
      </trkpt>
      <trkpt lat="50.3837" lon="4.45128">
        <ele>130.4</ele>
        <time>2022-09-22T11:39:47Z</time>
      </trkpt>
      <trkpt lat="50.38385" lon="4.45113">
        <ele>130.4</ele>
        <time>2022-09-22T11:39:52Z</time>
      </trkpt>
      <trkpt lat="50.38389" lon="4.45102">
        <ele>130.4</ele>
        <time>2022-09-22T11:39:56Z</time>
      </trkpt>
      <trkpt lat="50.38379" lon="4.45055">
        <ele>128.6</ele>
        <time>2022-09-22T11:40:08Z</time>
      </trkpt>
      <trkpt lat="50.38369" lon="4.45027">
        <ele>127.8</ele>
        <time>2022-09-22T11:40:13Z</time>
      </trkpt>
      <trkpt lat="50.38356" lon="4.45005">
        <ele>127.6</ele>
        <time>2022-09-22T11:40:18Z</time>
      </trkpt>
      <trkpt lat="50.38347" lon="4.44987">
        <ele>127.6</ele>
        <time>2022-09-22T11:40:23Z</time>
      </trkpt>
      <trkpt lat="50.38341" lon="4.44969">
        <ele>127.8</ele>
        <time>2022-09-22T11:40:28Z</time>
      </trkpt>
      <trkpt lat="50.38331" lon="4.44949">
        <ele>127</ele>
        <time>2022-09-22T11:40:33Z</time>
      </trkpt>
      <trkpt lat="50.38329" lon="4.44927">
        <ele>128.4</ele>
        <time>2022-09-22T11:40:38Z</time>
      </trkpt>
      <trkpt lat="50.38337" lon="4.44864">
        <ele>128.2</ele>
        <time>2022-09-22T11:40:52Z</time>
      </trkpt>
      <trkpt lat="50.38338" lon="4.44833">
        <ele>128.8</ele>
        <time>2022-09-22T11:40:57Z</time>
      </trkpt>
      <trkpt lat="50.38342" lon="4.44791">
        <ele>129</ele>
        <time>2022-09-22T11:41:04Z</time>
      </trkpt>
      <trkpt lat="50.38343" lon="4.44763">
        <ele>129.2</ele>
        <time>2022-09-22T11:41:10Z</time>
      </trkpt>
      <trkpt lat="50.38338" lon="4.44753">
        <ele>129.6</ele>
        <time>2022-09-22T11:41:14Z</time>
      </trkpt>
      <trkpt lat="50.38338" lon="4.44754">
        <ele>129.6</ele>
        <time>2022-09-22T11:41:15Z</time>
      </trkpt>
      <trkpt lat="50.38331" lon="4.44752">
        <ele>131</ele>
        <time>2022-09-22T11:41:49Z</time>
      </trkpt>
      <trkpt lat="50.38322" lon="4.44747">
        <ele>131.4</ele>
        <time>2022-09-22T11:41:53Z</time>
      </trkpt>
      <trkpt lat="50.38318" lon="4.44729">
        <ele>132</ele>
        <time>2022-09-22T11:41:59Z</time>
      </trkpt>
      <trkpt lat="50.38312" lon="4.44713">
        <ele>132.2</ele>
        <time>2022-09-22T11:42:03Z</time>
      </trkpt>
      <trkpt lat="50.38297" lon="4.44695">
        <ele>132.6</ele>
        <time>2022-09-22T11:42:09Z</time>
      </trkpt>
      <trkpt lat="50.38244" lon="4.44638">
        <ele>134</ele>
        <time>2022-09-22T11:42:27Z</time>
      </trkpt>
      <trkpt lat="50.38229" lon="4.44618">
        <ele>134.6</ele>
        <time>2022-09-22T11:42:33Z</time>
      </trkpt>
      <trkpt lat="50.38216" lon="4.44592">
        <ele>135</ele>
        <time>2022-09-22T11:42:39Z</time>
      </trkpt>
      <trkpt lat="50.38192" lon="4.44513">
        <ele>135.2</ele>
        <time>2022-09-22T11:42:53Z</time>
      </trkpt>
      <trkpt lat="50.38175" lon="4.44478">
        <ele>135.6</ele>
        <time>2022-09-22T11:43:01Z</time>
      </trkpt>
      <trkpt lat="50.38175" lon="4.44468">
        <ele>135.8</ele>
        <time>2022-09-22T11:43:04Z</time>
      </trkpt>
      <trkpt lat="50.38176" lon="4.44466">
        <ele>136</ele>
        <time>2022-09-22T11:43:05Z</time>
      </trkpt>
      <trkpt lat="50.38185" lon="4.44462">
        <ele>136.2</ele>
        <time>2022-09-22T11:43:10Z</time>
      </trkpt>
      <trkpt lat="50.38186" lon="4.4446">
        <ele>136.2</ele>
        <time>2022-09-22T11:43:11Z</time>
      </trkpt>
      <trkpt lat="50.38186" lon="4.44455">
        <ele>136.2</ele>
        <time>2022-09-22T11:43:13Z</time>
      </trkpt>
      <trkpt lat="50.38184" lon="4.4445">
        <ele>136.2</ele>
        <time>2022-09-22T11:43:16Z</time>
      </trkpt>
      <trkpt lat="50.38186" lon="4.44448">
        <ele>136.2</ele>
        <time>2022-09-22T11:43:18Z</time>
      </trkpt>
      <trkpt lat="50.38193" lon="4.44459">
        <ele>136.2</ele>
        <time>2022-09-22T11:43:22Z</time>
      </trkpt>
      <trkpt lat="50.38205" lon="4.44471">
        <ele>136.2</ele>
        <time>2022-09-22T11:43:27Z</time>
      </trkpt>
      <trkpt lat="50.38209" lon="4.4447">
        <ele>136.2</ele>
        <time>2022-09-22T11:43:29Z</time>
      </trkpt>
      <trkpt lat="50.38211" lon="4.44465">
        <ele>135.8</ele>
        <time>2022-09-22T11:43:32Z</time>
      </trkpt>
      <trkpt lat="50.38208" lon="4.44461">
        <ele>135.6</ele>
        <time>2022-09-22T11:43:34Z</time>
      </trkpt>
      <trkpt lat="50.38199" lon="4.44458">
        <ele>135.4</ele>
        <time>2022-09-22T11:43:38Z</time>
      </trkpt>
      <trkpt lat="50.38194" lon="4.44435">
        <ele>135.2</ele>
        <time>2022-09-22T11:43:43Z</time>
      </trkpt>
      <trkpt lat="50.38209" lon="4.44412">
        <ele>135</ele>
        <time>2022-09-22T11:43:53Z</time>
      </trkpt>
      <trkpt lat="50.38211" lon="4.44406">
        <ele>134.8</ele>
        <time>2022-09-22T11:43:57Z</time>
      </trkpt>
      <trkpt lat="50.38215" lon="4.44401">
        <ele>134.2</ele>
        <time>2022-09-22T11:44:09Z</time>
      </trkpt>
      <trkpt lat="50.38218" lon="4.44401">
        <ele>134.2</ele>
        <time>2022-09-22T11:44:10Z</time>
      </trkpt>
      <trkpt lat="50.38241" lon="4.44421">
        <ele>133.8</ele>
        <time>2022-09-22T11:44:16Z</time>
      </trkpt>
      <trkpt lat="50.38254" lon="4.44431">
        <ele>133.2</ele>
        <time>2022-09-22T11:44:29Z</time>
      </trkpt>
      <trkpt lat="50.38252" lon="4.44425">
        <ele>135.1</ele>
      </trkpt>
      <trkpt lat="50.38249" lon="4.44416">
        <ele>132.8</ele>
        <time>2022-09-22T11:44:40Z</time>
      </trkpt>
      <trkpt lat="50.38229" lon="4.44397">
        <ele>132.4</ele>
        <time>2022-09-22T11:44:51Z</time>
      </trkpt>
      <trkpt lat="50.38221" lon="4.44379">
        <ele>132.4</ele>
        <time>2022-09-22T11:44:55Z</time>
      </trkpt>
      <trkpt lat="50.38216" lon="4.44361">
        <ele>132.2</ele>
        <time>2022-09-22T11:45:00Z</time>
      </trkpt>
      <trkpt lat="50.38208" lon="4.44345">
        <ele>132.8</ele>
        <time>2022-09-22T11:45:06Z</time>
      </trkpt>
      <trkpt lat="50.38179" lon="4.44304">
        <ele>134.2</ele>
        <time>2022-09-22T11:45:22Z</time>
      </trkpt>
      <trkpt lat="50.38171" lon="4.44291">
        <ele>134.4</ele>
        <time>2022-09-22T11:45:27Z</time>
      </trkpt>
      <trkpt lat="50.38163" lon="4.44274">
        <ele>134.8</ele>
        <time>2022-09-22T11:45:33Z</time>
      </trkpt>
      <trkpt lat="50.38153" lon="4.44259">
        <ele>135.8</ele>
        <time>2022-09-22T11:45:39Z</time>
      </trkpt>
      <trkpt lat="50.38149" lon="4.44238">
        <ele>136.6</ele>
        <time>2022-09-22T11:45:44Z</time>
      </trkpt>
      <trkpt lat="50.38147" lon="4.44233">
        <ele>136.6</ele>
        <time>2022-09-22T11:45:45Z</time>
      </trkpt>
      <trkpt lat="50.38113" lon="4.4419">
        <ele>137.6</ele>
        <time>2022-09-22T11:45:58Z</time>
      </trkpt>
      <trkpt lat="50.3809" lon="4.44166">
        <ele>138.2</ele>
        <time>2022-09-22T11:46:05Z</time>
      </trkpt>
      <trkpt lat="50.38059" lon="4.4413">
        <ele>138.6</ele>
        <time>2022-09-22T11:46:16Z</time>
      </trkpt>
      <trkpt lat="50.38045" lon="4.44118">
        <ele>138.6</ele>
        <time>2022-09-22T11:46:21Z</time>
      </trkpt>
      <trkpt lat="50.3803" lon="4.44103">
        <ele>137.6</ele>
        <time>2022-09-22T11:46:26Z</time>
      </trkpt>
      <trkpt lat="50.3802" lon="4.44102">
        <ele>137.6</ele>
        <time>2022-09-22T11:46:29Z</time>
      </trkpt>
      <trkpt lat="50.38015" lon="4.44105">
        <ele>137.4</ele>
        <time>2022-09-22T11:46:30Z</time>
      </trkpt>
      <trkpt lat="50.37997" lon="4.44126">
        <ele>137.2</ele>
        <time>2022-09-22T11:46:35Z</time>
      </trkpt>
      <trkpt lat="50.37983" lon="4.4414">
        <ele>137.2</ele>
        <time>2022-09-22T11:46:40Z</time>
      </trkpt>
      <trkpt lat="50.37974" lon="4.44156">
        <ele>137.2</ele>
        <time>2022-09-22T11:46:44Z</time>
      </trkpt>
      <trkpt lat="50.37969" lon="4.44176">
        <ele>137.4</ele>
        <time>2022-09-22T11:46:49Z</time>
      </trkpt>
      <trkpt lat="50.37963" lon="4.44192">
        <ele>138.2</ele>
        <time>2022-09-22T11:46:54Z</time>
      </trkpt>
      <trkpt lat="50.3796" lon="4.44218">
        <ele>138.6</ele>
        <time>2022-09-22T11:46:59Z</time>
      </trkpt>
      <trkpt lat="50.37939" lon="4.44276">
        <ele>140.6</ele>
        <time>2022-09-22T11:47:12Z</time>
      </trkpt>
      <trkpt lat="50.37922" lon="4.44265">
        <ele>141.8</ele>
        <time>2022-09-22T11:47:21Z</time>
      </trkpt>
      <trkpt lat="50.37855" lon="4.44211">
        <ele>145.2</ele>
        <time>2022-09-22T11:47:48Z</time>
      </trkpt>
      <trkpt lat="50.37838" lon="4.44199">
        <ele>145.8</ele>
        <time>2022-09-22T11:47:53Z</time>
      </trkpt>
      <trkpt lat="50.37821" lon="4.44185">
        <ele>146.2</ele>
        <time>2022-09-22T11:47:58Z</time>
      </trkpt>
      <trkpt lat="50.37778" lon="4.44156">
        <ele>147.4</ele>
        <time>2022-09-22T11:48:10Z</time>
      </trkpt>
      <trkpt lat="50.37739" lon="4.44127">
        <ele>148.4</ele>
        <time>2022-09-22T11:48:21Z</time>
      </trkpt>
      <trkpt lat="50.37718" lon="4.44115">
        <ele>148.6</ele>
        <time>2022-09-22T11:48:26Z</time>
      </trkpt>
      <trkpt lat="50.37704" lon="4.44104">
        <ele>149</ele>
        <time>2022-09-22T11:48:30Z</time>
      </trkpt>
      <trkpt lat="50.37692" lon="4.44091">
        <ele>149.2</ele>
        <time>2022-09-22T11:48:34Z</time>
      </trkpt>
      <trkpt lat="50.37686" lon="4.44088">
        <ele>149.4</ele>
        <time>2022-09-22T11:48:36Z</time>
      </trkpt>
      <trkpt lat="50.37681" lon="4.44091">
        <ele>149.6</ele>
        <time>2022-09-22T11:48:39Z</time>
      </trkpt>
      <trkpt lat="50.37675" lon="4.44109">
        <ele>150.8</ele>
        <time>2022-09-22T11:48:53Z</time>
      </trkpt>
      <trkpt lat="50.37644" lon="4.44237">
        <ele>154.4</ele>
        <time>2022-09-22T11:49:22Z</time>
      </trkpt>
      <trkpt lat="50.37624" lon="4.44327">
        <ele>157.4</ele>
        <time>2022-09-22T11:49:41Z</time>
      </trkpt>
      <trkpt lat="50.37621" lon="4.44343">
        <ele>158.8</ele>
        <time>2022-09-22T11:49:49Z</time>
      </trkpt>
      <trkpt lat="50.37618" lon="4.44367">
        <ele>159.2</ele>
        <time>2022-09-22T11:49:55Z</time>
      </trkpt>
      <trkpt lat="50.37606" lon="4.44408">
        <ele>160.4</ele>
        <time>2022-09-22T11:50:02Z</time>
      </trkpt>
      <trkpt lat="50.37594" lon="4.4446">
        <ele>161.2</ele>
        <time>2022-09-22T11:50:10Z</time>
      </trkpt>
      <trkpt lat="50.37584" lon="4.44505">
        <ele>165</ele>
        <time>2022-09-22T11:50:17Z</time>
      </trkpt>
      <trkpt lat="50.37573" lon="4.44499">
        <ele>161.4</ele>
        <time>2022-09-22T11:50:19Z</time>
      </trkpt>
      <trkpt lat="50.37571" lon="4.44494">
        <ele>161.6</ele>
        <time>2022-09-22T11:50:20Z</time>
      </trkpt>
      <trkpt lat="50.37536" lon="4.44461">
        <ele>162</ele>
        <time>2022-09-22T11:50:32Z</time>
      </trkpt>
      <trkpt lat="50.37507" lon="4.44442">
        <ele>162.4</ele>
        <time>2022-09-22T11:50:41Z</time>
      </trkpt>
      <trkpt lat="50.37481" lon="4.4444">
        <ele>162.8</ele>
        <time>2022-09-22T11:50:49Z</time>
      </trkpt>
      <trkpt lat="50.3745" lon="4.4444">
        <ele>163.2</ele>
        <time>2022-09-22T11:50:57Z</time>
      </trkpt>
      <trkpt lat="50.37423" lon="4.44428">
        <ele>163.8</ele>
        <time>2022-09-22T11:51:05Z</time>
      </trkpt>
      <trkpt lat="50.37395" lon="4.44412">
        <ele>164</ele>
        <time>2022-09-22T11:51:13Z</time>
      </trkpt>
      <trkpt lat="50.3738" lon="4.44399">
        <ele>164.4</ele>
        <time>2022-09-22T11:51:18Z</time>
      </trkpt>
      <trkpt lat="50.37373" lon="4.44399">
        <ele>164.4</ele>
        <time>2022-09-22T11:51:20Z</time>
      </trkpt>
      <trkpt lat="50.37371" lon="4.44401">
        <ele>164.6</ele>
        <time>2022-09-22T11:51:21Z</time>
      </trkpt>
      <trkpt lat="50.37353" lon="4.44407">
        <ele>164.6</ele>
        <time>2022-09-22T11:51:26Z</time>
      </trkpt>
      <trkpt lat="50.37331" lon="4.44412">
        <ele>164.6</ele>
        <time>2022-09-22T11:51:32Z</time>
      </trkpt>
      <trkpt lat="50.37314" lon="4.44419">
        <ele>164.4</ele>
        <time>2022-09-22T11:51:36Z</time>
      </trkpt>
      <trkpt lat="50.37301" lon="4.44426">
        <ele>164.2</ele>
        <time>2022-09-22T11:51:39Z</time>
      </trkpt>
      <trkpt lat="50.37292" lon="4.44429">
        <ele>164.2</ele>
        <time>2022-09-22T11:51:41Z</time>
      </trkpt>
      <trkpt lat="50.37265" lon="4.44428">
        <ele>163.6</ele>
        <time>2022-09-22T11:51:48Z</time>
      </trkpt>
      <trkpt lat="50.37249" lon="4.44423">
        <ele>163.4</ele>
        <time>2022-09-22T11:51:52Z</time>
      </trkpt>
      <trkpt lat="50.37217" lon="4.44406">
        <ele>162.2</ele>
        <time>2022-09-22T11:52:00Z</time>
      </trkpt>
      <trkpt lat="50.37187" lon="4.44404">
        <ele>160.8</ele>
        <time>2022-09-22T11:52:09Z</time>
      </trkpt>
      <trkpt lat="50.37171" lon="4.44408">
        <ele>159.8</ele>
        <time>2022-09-22T11:52:13Z</time>
      </trkpt>
      <trkpt lat="50.37163" lon="4.44421">
        <ele>159</ele>
        <time>2022-09-22T11:52:17Z</time>
      </trkpt>
      <trkpt lat="50.37159" lon="4.44436">
        <ele>158.3</ele>
      </trkpt>
      <trkpt lat="50.37157" lon="4.44444">
        <ele>158.4</ele>
        <time>2022-09-22T11:52:22Z</time>
      </trkpt>
      <trkpt lat="50.37155" lon="4.4445">
        <ele>157.2</ele>
        <time>2022-09-22T11:52:26Z</time>
      </trkpt>
      <trkpt lat="50.37152" lon="4.44461">
        <ele>156.6</ele>
        <time>2022-09-22T11:52:29Z</time>
      </trkpt>
      <trkpt lat="50.3715" lon="4.44476">
        <ele>156</ele>
        <time>2022-09-22T11:52:33Z</time>
      </trkpt>
      <trkpt lat="50.37151" lon="4.44485">
        <ele>155.8</ele>
        <time>2022-09-22T11:52:35Z</time>
      </trkpt>
      <trkpt lat="50.3715" lon="4.44499">
        <ele>155.6</ele>
        <time>2022-09-22T11:52:39Z</time>
      </trkpt>
      <trkpt lat="50.37151" lon="4.44527">
        <ele>155.8</ele>
        <time>2022-09-22T11:52:46Z</time>
      </trkpt>
      <trkpt lat="50.37154" lon="4.44549">
        <ele>155.2</ele>
        <time>2022-09-22T11:52:53Z</time>
      </trkpt>
      <trkpt lat="50.37153" lon="4.44556">
        <ele>155.2</ele>
        <time>2022-09-22T11:52:55Z</time>
      </trkpt>
      <trkpt lat="50.37153" lon="4.44576">
        <ele>172.6</ele>
      </trkpt>
      <trkpt lat="50.37158" lon="4.446">
        <ele>156.4</ele>
        <time>2022-09-22T11:53:14Z</time>
      </trkpt>
      <trkpt lat="50.37155" lon="4.44602">
        <ele>173.5</ele>
      </trkpt>
      <trkpt lat="50.37156" lon="4.44605">
        <ele>156.6</ele>
        <time>2022-09-22T11:53:19Z</time>
      </trkpt>
      <trkpt lat="50.37157" lon="4.44624">
        <ele>158</ele>
        <time>2022-09-22T11:53:23Z</time>
      </trkpt>
      <trkpt lat="50.3716" lon="4.44635">
        <ele>158.6</ele>
        <time>2022-09-22T11:53:26Z</time>
      </trkpt>
      <trkpt lat="50.3716" lon="4.44645">
        <ele>159.8</ele>
        <time>2022-09-22T11:53:32Z</time>
      </trkpt>
      <trkpt lat="50.37161" lon="4.4465">
        <ele>174.5</ele>
        <time>2022-09-22T11:53:56Z</time>
      </trkpt>
      <trkpt lat="50.37159" lon="4.44665">
        <ele>174.8</ele>
        <time>2022-09-22T11:54:02Z</time>
      </trkpt>
      <trkpt lat="50.3716" lon="4.44685">
        <ele>174.7</ele>
        <time>2022-09-22T11:54:14Z</time>
      </trkpt>
      <trkpt lat="50.3716" lon="4.44705">
        <ele>174.3</ele>
        <time>2022-09-22T11:54:17Z</time>
      </trkpt>
      <trkpt lat="50.37162" lon="4.44722">
        <ele>173.4</ele>
        <time>2022-09-22T11:54:23Z</time>
      </trkpt>
      <trkpt lat="50.37165" lon="4.44727">
        <ele>172.8</ele>
        <time>2022-09-22T11:54:24Z</time>
      </trkpt>
      <trkpt lat="50.37159" lon="4.4474">
        <ele>172.3</ele>
        <time>2022-09-22T11:54:28Z</time>
      </trkpt>
      <trkpt lat="50.3715" lon="4.44765">
        <ele>171.2</ele>
        <time>2022-09-22T11:54:35Z</time>
      </trkpt>
      <trkpt lat="50.37145" lon="4.44771">
        <ele>171</ele>
        <time>2022-09-22T11:54:36Z</time>
      </trkpt>
      <trkpt lat="50.37136" lon="4.44794">
        <ele>169.4</ele>
        <time>2022-09-22T11:54:44Z</time>
      </trkpt>
      <trkpt lat="50.37084" lon="4.44894">
        <ele>173.4</ele>
        <time>2022-09-22T11:55:06Z</time>
      </trkpt>
      <trkpt lat="50.37077" lon="4.449">
        <ele>173.2</ele>
        <time>2022-09-22T11:55:09Z</time>
      </trkpt>
      <trkpt lat="50.37072" lon="4.44908">
        <ele>173.4</ele>
        <time>2022-09-22T11:55:14Z</time>
      </trkpt>
      <trkpt lat="50.37072" lon="4.4491">
        <ele>173.8</ele>
        <time>2022-09-22T11:55:21Z</time>
      </trkpt>
      <trkpt lat="50.37069" lon="4.44914">
        <ele>173.8</ele>
        <time>2022-09-22T11:55:28Z</time>
      </trkpt>
      <trkpt lat="50.37055" lon="4.44931">
        <ele>166</ele>
        <time>2022-09-22T11:55:37Z</time>
      </trkpt>
      <trkpt lat="50.3705" lon="4.44942">
        <ele>165.3</ele>
      </trkpt>
      <trkpt lat="50.37038" lon="4.44958">
        <ele>163.8</ele>
        <time>2022-09-22T11:55:41Z</time>
      </trkpt>
      <trkpt lat="50.37019" lon="4.44983">
        <ele>161.5</ele>
        <time>2022-09-22T11:55:50Z</time>
      </trkpt>
      <trkpt lat="50.37017" lon="4.44997">
        <ele>159.7</ele>
        <time>2022-09-22T11:55:53Z</time>
      </trkpt>
      <trkpt lat="50.37016" lon="4.45005">
        <ele>159.3</ele>
        <time>2022-09-22T11:55:58Z</time>
      </trkpt>
      <trkpt lat="50.37016" lon="4.45008">
        <ele>159.3</ele>
      </trkpt>
      <trkpt lat="50.37015" lon="4.45014">
        <ele>159.4</ele>
        <time>2022-09-22T11:56:00Z</time>
      </trkpt>
      <trkpt lat="50.37014" lon="4.45021">
        <ele>159.5</ele>
        <time>2022-09-22T11:56:03Z</time>
      </trkpt>
      <trkpt lat="50.37015" lon="4.45029">
        <ele>159.7</ele>
        <time>2022-09-22T11:56:17Z</time>
      </trkpt>
      <trkpt lat="50.37016" lon="4.45033">
        <ele>160.3</ele>
        <time>2022-09-22T11:57:08Z</time>
      </trkpt>
      <trkpt lat="50.37007" lon="4.45037">
        <ele>161</ele>
        <time>2022-09-22T11:58:32Z</time>
      </trkpt>
      <trkpt lat="50.37" lon="4.4504">
        <ele>161.3</ele>
        <time>2022-09-22T11:58:37Z</time>
      </trkpt>
      <trkpt lat="50.36987" lon="4.45044">
        <ele>161.9</ele>
        <time>2022-09-22T11:58:43Z</time>
      </trkpt>
      <trkpt lat="50.36967" lon="4.45053">
        <ele>162.8</ele>
        <time>2022-09-22T11:58:52Z</time>
      </trkpt>
      <trkpt lat="50.36951" lon="4.45066">
        <ele>164.2</ele>
        <time>2022-09-22T11:58:58Z</time>
      </trkpt>
      <trkpt lat="50.36941" lon="4.45077">
        <ele>164.6</ele>
        <time>2022-09-22T11:59:01Z</time>
      </trkpt>
      <trkpt lat="50.36942" lon="4.45099">
        <ele>166.3</ele>
        <time>2022-09-22T11:59:06Z</time>
      </trkpt>
      <trkpt lat="50.36944" lon="4.45108">
        <ele>166.8</ele>
      </trkpt>
      <trkpt lat="50.36949" lon="4.45113">
        <ele>160.8</ele>
        <time>2022-09-22T11:59:11Z</time>
      </trkpt>
      <trkpt lat="50.36956" lon="4.45133">
        <ele>162</ele>
        <time>2022-09-22T11:59:17Z</time>
      </trkpt>
      <trkpt lat="50.36958" lon="4.4514">
        <ele>172.5</ele>
        <time>2022-09-22T11:59:19Z</time>
      </trkpt>
      <trkpt lat="50.36958" lon="4.45153">
        <ele>173</ele>
        <time>2022-09-22T11:59:23Z</time>
      </trkpt>
      <trkpt lat="50.36952" lon="4.45178">
        <ele>173.9</ele>
        <time>2022-09-22T11:59:30Z</time>
      </trkpt>
      <trkpt lat="50.3695" lon="4.45204">
        <ele>165.4</ele>
        <time>2022-09-22T11:59:35Z</time>
      </trkpt>
      <trkpt lat="50.36948" lon="4.45227">
        <ele>175.7</ele>
      </trkpt>
      <trkpt lat="50.36947" lon="4.45238">
        <ele>176.3</ele>
      </trkpt>
      <trkpt lat="50.36949" lon="4.45247">
        <ele>166.8</ele>
        <time>2022-09-22T11:59:44Z</time>
      </trkpt>
      <trkpt lat="50.36952" lon="4.45262">
        <ele>167.2</ele>
        <time>2022-09-22T11:59:48Z</time>
      </trkpt>
      <trkpt lat="50.36959" lon="4.45278">
        <ele>168</ele>
        <time>2022-09-22T11:59:53Z</time>
      </trkpt>
      <trkpt lat="50.36961" lon="4.45286">
        <ele>179</ele>
      </trkpt>
      <trkpt lat="50.36961" lon="4.45297">
        <ele>179.6</ele>
        <time>2022-09-22T11:59:57Z</time>
      </trkpt>
      <trkpt lat="50.36961" lon="4.45308">
        <ele>180.1</ele>
        <time>2022-09-22T11:59:59Z</time>
      </trkpt>
      <trkpt lat="50.36958" lon="4.45327">
        <ele>180.8</ele>
      </trkpt>
      <trkpt lat="50.36957" lon="4.45338">
        <ele>181.2</ele>
      </trkpt>
      <trkpt lat="50.36958" lon="4.45346">
        <ele>170.8</ele>
        <time>2022-09-22T12:00:09Z</time>
      </trkpt>
      <trkpt lat="50.36964" lon="4.45399">
        <ele>183.4</ele>
        <time>2022-09-22T12:00:22Z</time>
      </trkpt>
      <trkpt lat="50.36974" lon="4.45427">
        <ele>184</ele>
        <time>2022-09-22T12:00:30Z</time>
      </trkpt>
      <trkpt lat="50.36995" lon="4.4546">
        <ele>184.1</ele>
        <time>2022-09-22T12:00:39Z</time>
      </trkpt>
      <trkpt lat="50.37011" lon="4.45492">
        <ele>184.4</ele>
        <time>2022-09-22T12:00:48Z</time>
      </trkpt>
      <trkpt lat="50.37017" lon="4.45509">
        <ele>184.5</ele>
        <time>2022-09-22T12:00:53Z</time>
      </trkpt>
      <trkpt lat="50.37034" lon="4.45552">
        <ele>179.2</ele>
        <time>2022-09-22T12:01:03Z</time>
      </trkpt>
      <trkpt lat="50.3704" lon="4.45569">
        <ele>179.8</ele>
        <time>2022-09-22T12:01:07Z</time>
      </trkpt>
      <trkpt lat="50.37042" lon="4.4559">
        <ele>180.4</ele>
        <time>2022-09-22T12:01:11Z</time>
      </trkpt>
      <trkpt lat="50.37045" lon="4.45607">
        <ele>184.1</ele>
        <time>2022-09-22T12:01:13Z</time>
      </trkpt>
      <trkpt lat="50.37037" lon="4.45604">
        <ele>181.2</ele>
        <time>2022-09-22T12:01:15Z</time>
      </trkpt>
      <trkpt lat="50.37031" lon="4.45607">
        <ele>181.2</ele>
        <time>2022-09-22T12:01:18Z</time>
      </trkpt>
      <trkpt lat="50.37006" lon="4.45602">
        <ele>182.2</ele>
        <time>2022-09-22T12:01:26Z</time>
      </trkpt>
      <trkpt lat="50.36972" lon="4.45586">
        <ele>183.4</ele>
        <time>2022-09-22T12:01:35Z</time>
      </trkpt>
      <trkpt lat="50.36946" lon="4.45577">
        <ele>184.2</ele>
        <time>2022-09-22T12:01:43Z</time>
      </trkpt>
      <trkpt lat="50.36924" lon="4.45571">
        <ele>184.6</ele>
        <time>2022-09-22T12:01:50Z</time>
      </trkpt>
      <trkpt lat="50.3691" lon="4.4557">
        <ele>184.8</ele>
        <time>2022-09-22T12:01:54Z</time>
      </trkpt>
      <trkpt lat="50.36878" lon="4.45564">
        <ele>185.2</ele>
        <time>2022-09-22T12:02:03Z</time>
      </trkpt>
      <trkpt lat="50.36849" lon="4.45556">
        <ele>185.6</ele>
        <time>2022-09-22T12:02:11Z</time>
      </trkpt>
      <trkpt lat="50.36796" lon="4.45534">
        <ele>185.6</ele>
        <time>2022-09-22T12:02:24Z</time>
      </trkpt>
      <trkpt lat="50.36762" lon="4.45514">
        <ele>185.8</ele>
        <time>2022-09-22T12:02:33Z</time>
      </trkpt>
      <trkpt lat="50.3674" lon="4.45498">
        <ele>185.8</ele>
        <time>2022-09-22T12:02:39Z</time>
      </trkpt>
      <trkpt lat="50.36713" lon="4.45472">
        <ele>185.4</ele>
        <time>2022-09-22T12:02:48Z</time>
      </trkpt>
      <trkpt lat="50.36712" lon="4.45469">
        <ele>185.4</ele>
        <time>2022-09-22T12:02:49Z</time>
      </trkpt>
      <trkpt lat="50.36685" lon="4.45438">
        <ele>186</ele>
        <time>2022-09-22T12:02:57Z</time>
      </trkpt>
      <trkpt lat="50.36668" lon="4.45413">
        <ele>186.6</ele>
        <time>2022-09-22T12:03:02Z</time>
      </trkpt>
      <trkpt lat="50.36656" lon="4.454">
        <ele>186.6</ele>
        <time>2022-09-22T12:03:05Z</time>
      </trkpt>
      <trkpt lat="50.3665" lon="4.45391">
        <ele>186.6</ele>
        <time>2022-09-22T12:03:07Z</time>
      </trkpt>
      <trkpt lat="50.36631" lon="4.45371">
        <ele>187.4</ele>
        <time>2022-09-22T12:03:12Z</time>
      </trkpt>
      <trkpt lat="50.36616" lon="4.4536">
        <ele>187.4</ele>
        <time>2022-09-22T12:03:16Z</time>
      </trkpt>
      <trkpt lat="50.36593" lon="4.45351">
        <ele>187.6</ele>
        <time>2022-09-22T12:03:21Z</time>
      </trkpt>
      <trkpt lat="50.36581" lon="4.45349">
        <ele>187.8</ele>
        <time>2022-09-22T12:03:24Z</time>
      </trkpt>
      <trkpt lat="50.36531" lon="4.45329">
        <ele>188.4</ele>
        <time>2022-09-22T12:03:36Z</time>
      </trkpt>
      <trkpt lat="50.36513" lon="4.4532">
        <ele>188.6</ele>
        <time>2022-09-22T12:03:40Z</time>
      </trkpt>
      <trkpt lat="50.36489" lon="4.45303">
        <ele>188.8</ele>
        <time>2022-09-22T12:03:47Z</time>
      </trkpt>
      <trkpt lat="50.36458" lon="4.45287">
        <ele>189</ele>
        <time>2022-09-22T12:03:54Z</time>
      </trkpt>
      <trkpt lat="50.36428" lon="4.45279">
        <ele>189.4</ele>
        <time>2022-09-22T12:04:01Z</time>
      </trkpt>
      <trkpt lat="50.36392" lon="4.45265">
        <ele>189.8</ele>
        <time>2022-09-22T12:04:10Z</time>
      </trkpt>
      <trkpt lat="50.3638" lon="4.45257">
        <ele>190</ele>
        <time>2022-09-22T12:04:13Z</time>
      </trkpt>
      <trkpt lat="50.36371" lon="4.45246">
        <ele>190.2</ele>
        <time>2022-09-22T12:04:16Z</time>
      </trkpt>
      <trkpt lat="50.3635" lon="4.45229">
        <ele>190.4</ele>
        <time>2022-09-22T12:04:21Z</time>
      </trkpt>
      <trkpt lat="50.3632" lon="4.452">
        <ele>191.4</ele>
        <time>2022-09-22T12:04:31Z</time>
      </trkpt>
      <trkpt lat="50.36304" lon="4.45191">
        <ele>191.6</ele>
        <time>2022-09-22T12:04:36Z</time>
      </trkpt>
      <trkpt lat="50.36286" lon="4.45184">
        <ele>192</ele>
        <time>2022-09-22T12:04:41Z</time>
      </trkpt>
      <trkpt lat="50.36259" lon="4.45171">
        <ele>192.8</ele>
        <time>2022-09-22T12:04:50Z</time>
      </trkpt>
      <trkpt lat="50.36242" lon="4.45165">
        <ele>193.4</ele>
        <time>2022-09-22T12:04:55Z</time>
      </trkpt>
      <trkpt lat="50.36227" lon="4.45158">
        <ele>194</ele>
        <time>2022-09-22T12:04:59Z</time>
      </trkpt>
      <trkpt lat="50.36185" lon="4.45142">
        <ele>195.2</ele>
        <time>2022-09-22T12:05:08Z</time>
      </trkpt>
      <trkpt lat="50.36158" lon="4.45134">
        <ele>196</ele>
        <time>2022-09-22T12:05:13Z</time>
      </trkpt>
      <trkpt lat="50.36133" lon="4.4512">
        <ele>197.2</ele>
        <time>2022-09-22T12:05:19Z</time>
      </trkpt>
      <trkpt lat="50.36117" lon="4.451">
        <ele>198</ele>
        <time>2022-09-22T12:05:24Z</time>
      </trkpt>
      <trkpt lat="50.36098" lon="4.45067">
        <ele>199.4</ele>
        <time>2022-09-22T12:05:31Z</time>
      </trkpt>
      <trkpt lat="50.3608" lon="4.4504">
        <ele>200.4</ele>
        <time>2022-09-22T12:05:37Z</time>
      </trkpt>
      <trkpt lat="50.36068" lon="4.45018">
        <ele>201.2</ele>
        <time>2022-09-22T12:05:42Z</time>
      </trkpt>
      <trkpt lat="50.36026" lon="4.4495">
        <ele>202.8</ele>
        <time>2022-09-22T12:05:57Z</time>
      </trkpt>
      <trkpt lat="50.36019" lon="4.44941">
        <ele>202.8</ele>
        <time>2022-09-22T12:05:59Z</time>
      </trkpt>
      <trkpt lat="50.35985" lon="4.44883">
        <ele>203.8</ele>
        <time>2022-09-22T12:06:11Z</time>
      </trkpt>
      <trkpt lat="50.3598" lon="4.44871">
        <ele>203.8</ele>
        <time>2022-09-22T12:06:13Z</time>
      </trkpt>
      <trkpt lat="50.35963" lon="4.44841">
        <ele>204</ele>
        <time>2022-09-22T12:06:19Z</time>
      </trkpt>
      <trkpt lat="50.35953" lon="4.4482">
        <ele>204</ele>
        <time>2022-09-22T12:06:23Z</time>
      </trkpt>
      <trkpt lat="50.35952" lon="4.44815">
        <ele>204</ele>
        <time>2022-09-22T12:06:24Z</time>
      </trkpt>
      <trkpt lat="50.35936" lon="4.44786">
        <ele>204.6</ele>
        <time>2022-09-22T12:06:30Z</time>
      </trkpt>
      <trkpt lat="50.35934" lon="4.4478">
        <ele>204.8</ele>
        <time>2022-09-22T12:06:31Z</time>
      </trkpt>
      <trkpt lat="50.3592" lon="4.44759">
        <ele>205</ele>
        <time>2022-09-22T12:06:35Z</time>
      </trkpt>
      <trkpt lat="50.35875" lon="4.44704">
        <ele>205</ele>
        <time>2022-09-22T12:06:47Z</time>
      </trkpt>
      <trkpt lat="50.35872" lon="4.44699">
        <ele>205</ele>
        <time>2022-09-22T12:06:48Z</time>
      </trkpt>
      <trkpt lat="50.35855" lon="4.44681">
        <ele>205.2</ele>
        <time>2022-09-22T12:06:52Z</time>
      </trkpt>
      <trkpt lat="50.35799" lon="4.44627">
        <ele>205.2</ele>
        <time>2022-09-22T12:07:05Z</time>
      </trkpt>
      <trkpt lat="50.35782" lon="4.44608">
        <ele>205.2</ele>
        <time>2022-09-22T12:07:09Z</time>
      </trkpt>
      <trkpt lat="50.3576" lon="4.4459">
        <ele>205</ele>
        <time>2022-09-22T12:07:14Z</time>
      </trkpt>
      <trkpt lat="50.35757" lon="4.44585">
        <ele>205</ele>
        <time>2022-09-22T12:07:15Z</time>
      </trkpt>
      <trkpt lat="50.35752" lon="4.44582">
        <ele>205</ele>
        <time>2022-09-22T12:07:16Z</time>
      </trkpt>
      <trkpt lat="50.35701" lon="4.44518">
        <ele>206.2</ele>
        <time>2022-09-22T12:07:31Z</time>
      </trkpt>
      <trkpt lat="50.35691" lon="4.44494">
        <ele>206.6</ele>
        <time>2022-09-22T12:07:36Z</time>
      </trkpt>
      <trkpt lat="50.35679" lon="4.44455">
        <ele>207.6</ele>
        <time>2022-09-22T12:07:45Z</time>
      </trkpt>
      <trkpt lat="50.35651" lon="4.44405">
        <ele>208.2</ele>
        <time>2022-09-22T12:07:54Z</time>
      </trkpt>
      <trkpt lat="50.35624" lon="4.44362">
        <ele>208.8</ele>
        <time>2022-09-22T12:08:02Z</time>
      </trkpt>
      <trkpt lat="50.35623" lon="4.44357">
        <ele>209</ele>
        <time>2022-09-22T12:08:03Z</time>
      </trkpt>
      <trkpt lat="50.35587" lon="4.44305">
        <ele>209.8</ele>
        <time>2022-09-22T12:08:12Z</time>
      </trkpt>
      <trkpt lat="50.35584" lon="4.44299">
        <ele>210</ele>
        <time>2022-09-22T12:08:13Z</time>
      </trkpt>
      <trkpt lat="50.35563" lon="4.44262">
        <ele>223.6</ele>
        <time>2022-09-22T12:08:19Z</time>
      </trkpt>
      <trkpt lat="50.3555" lon="4.4424">
        <ele>210.4</ele>
        <time>2022-09-22T12:08:24Z</time>
      </trkpt>
      <trkpt lat="50.35547" lon="4.44227">
        <ele>210.8</ele>
        <time>2022-09-22T12:08:27Z</time>
      </trkpt>
      <trkpt lat="50.35537" lon="4.44213">
        <ele>211.8</ele>
        <time>2022-09-22T12:08:44Z</time>
      </trkpt>
      <trkpt lat="50.35537" lon="4.4421">
        <ele>214.4</ele>
        <time>2022-09-22T12:09:33Z</time>
      </trkpt>
      <trkpt lat="50.35535" lon="4.44211">
        <ele>215.6</ele>
        <time>2022-09-22T12:09:51Z</time>
      </trkpt>
      <trkpt lat="50.35536" lon="4.44211">
        <ele>217.8</ele>
        <time>2022-09-22T12:10:44Z</time>
      </trkpt>
      <trkpt lat="50.35532" lon="4.44208">
        <ele>218.2</ele>
        <time>2022-09-22T12:11:05Z</time>
      </trkpt>
      <trkpt lat="50.35529" lon="4.44208">
        <ele>218.2</ele>
        <time>2022-09-22T12:11:06Z</time>
      </trkpt>
      <trkpt lat="50.35525" lon="4.44211">
        <ele>218.4</ele>
        <time>2022-09-22T12:11:08Z</time>
      </trkpt>
      <trkpt lat="50.35484" lon="4.44259">
        <ele>218.8</ele>
        <time>2022-09-22T12:11:23Z</time>
      </trkpt>
      <trkpt lat="50.35446" lon="4.44301">
        <ele>219.6</ele>
        <time>2022-09-22T12:11:37Z</time>
      </trkpt>
      <trkpt lat="50.35408" lon="4.4434">
        <ele>220.8</ele>
        <time>2022-09-22T12:11:54Z</time>
      </trkpt>
      <trkpt lat="50.35398" lon="4.44355">
        <ele>221.2</ele>
        <time>2022-09-22T12:11:58Z</time>
      </trkpt>
      <trkpt lat="50.35384" lon="4.4437">
        <ele>221.6</ele>
        <time>2022-09-22T12:12:03Z</time>
      </trkpt>
      <trkpt lat="50.35374" lon="4.44374">
        <ele>221.8</ele>
        <time>2022-09-22T12:12:08Z</time>
      </trkpt>
      <trkpt lat="50.35362" lon="4.44385">
        <ele>222.4</ele>
        <time>2022-09-22T12:12:14Z</time>
      </trkpt>
      <trkpt lat="50.3532" lon="4.44403">
        <ele>223</ele>
        <time>2022-09-22T12:12:23Z</time>
      </trkpt>
      <trkpt lat="50.35302" lon="4.44414">
        <ele>223.2</ele>
        <time>2022-09-22T12:12:27Z</time>
      </trkpt>
      <trkpt lat="50.35283" lon="4.44425">
        <ele>219.7</ele>
        <time>2022-09-22T12:12:31Z</time>
      </trkpt>
      <trkpt lat="50.35252" lon="4.44445">
        <ele>219</ele>
        <time>2022-09-22T12:12:38Z</time>
      </trkpt>
      <trkpt lat="50.35234" lon="4.44456">
        <ele>218.5</ele>
        <time>2022-09-22T12:12:41Z</time>
      </trkpt>
      <trkpt lat="50.35186" lon="4.44473">
        <ele>217</ele>
        <time>2022-09-22T12:12:48Z</time>
      </trkpt>
      <trkpt lat="50.35141" lon="4.44485">
        <ele>223.8</ele>
        <time>2022-09-22T12:12:56Z</time>
      </trkpt>
      <trkpt lat="50.35119" lon="4.44487">
        <ele>223.2</ele>
        <time>2022-09-22T12:13:00Z</time>
      </trkpt>
      <trkpt lat="50.35096" lon="4.44491">
        <ele>222.8</ele>
        <time>2022-09-22T12:13:04Z</time>
      </trkpt>
      <trkpt lat="50.3504" lon="4.44505">
        <ele>221.4</ele>
        <time>2022-09-22T12:13:14Z</time>
      </trkpt>
      <trkpt lat="50.35024" lon="4.4451">
        <ele>220.8</ele>
        <time>2022-09-22T12:13:18Z</time>
      </trkpt>
      <trkpt lat="50.35012" lon="4.44511">
        <ele>209.8</ele>
        <time>2022-09-22T12:13:22Z</time>
      </trkpt>
      <trkpt lat="50.34982" lon="4.44539">
        <ele>207.9</ele>
        <time>2022-09-22T12:14:29Z</time>
      </trkpt>
      <trkpt lat="50.34978" lon="4.44559">
        <ele>207.4</ele>
        <time>2022-09-22T12:14:33Z</time>
      </trkpt>
      <trkpt lat="50.34976" lon="4.44589">
        <ele>207.4</ele>
        <time>2022-09-22T12:14:41Z</time>
      </trkpt>
      <trkpt lat="50.34968" lon="4.44641">
        <ele>207.2</ele>
        <time>2022-09-22T12:14:51Z</time>
      </trkpt>
      <trkpt lat="50.3496" lon="4.44674">
        <ele>206.8</ele>
        <time>2022-09-22T12:14:58Z</time>
      </trkpt>
      <trkpt lat="50.34952" lon="4.44696">
        <ele>206.8</ele>
        <time>2022-09-22T12:15:04Z</time>
      </trkpt>
      <trkpt lat="50.34951" lon="4.44711">
        <ele>206.6</ele>
        <time>2022-09-22T12:15:08Z</time>
      </trkpt>
      <trkpt lat="50.34946" lon="4.44736">
        <ele>206.8</ele>
        <time>2022-09-22T12:15:13Z</time>
      </trkpt>
      <trkpt lat="50.3494" lon="4.44787">
        <ele>207.4</ele>
        <time>2022-09-22T12:15:22Z</time>
      </trkpt>
      <trkpt lat="50.3494" lon="4.44827">
        <ele>207.4</ele>
        <time>2022-09-22T12:15:30Z</time>
      </trkpt>
      <trkpt lat="50.34941" lon="4.44838">
        <ele>207.4</ele>
        <time>2022-09-22T12:15:32Z</time>
      </trkpt>
      <trkpt lat="50.34945" lon="4.44876">
        <ele>215</ele>
        <time>2022-09-22T12:15:39Z</time>
      </trkpt>
      <trkpt lat="50.34947" lon="4.44903">
        <ele>215.5</ele>
        <time>2022-09-22T12:15:43Z</time>
      </trkpt>
      <trkpt lat="50.3494" lon="4.44948">
        <ele>216</ele>
        <time>2022-09-22T12:15:51Z</time>
      </trkpt>
      <trkpt lat="50.34912" lon="4.45018">
        <ele>209.4</ele>
        <time>2022-09-22T12:16:07Z</time>
      </trkpt>
      <trkpt lat="50.34906" lon="4.45032">
        <ele>209.6</ele>
        <time>2022-09-22T12:16:10Z</time>
      </trkpt>
      <trkpt lat="50.34905" lon="4.45049">
        <ele>209.8</ele>
        <time>2022-09-22T12:16:14Z</time>
      </trkpt>
      <trkpt lat="50.34893" lon="4.45084">
        <ele>217</ele>
      </trkpt>
      <trkpt lat="50.34891" lon="4.45087">
        <ele>210.6</ele>
        <time>2022-09-22T12:16:22Z</time>
      </trkpt>
      <trkpt lat="50.34891" lon="4.45094">
        <ele>217</ele>
      </trkpt>
      <trkpt lat="50.34862" lon="4.45148">
        <ele>211.6</ele>
        <time>2022-09-22T12:16:35Z</time>
      </trkpt>
      <trkpt lat="50.34842" lon="4.4518">
        <ele>212.4</ele>
        <time>2022-09-22T12:16:42Z</time>
      </trkpt>
      <trkpt lat="50.34833" lon="4.45204">
        <ele>213</ele>
        <time>2022-09-22T12:16:47Z</time>
      </trkpt>
      <trkpt lat="50.34823" lon="4.45222">
        <ele>213.6</ele>
        <time>2022-09-22T12:16:51Z</time>
      </trkpt>
      <trkpt lat="50.34809" lon="4.45241">
        <ele>214.2</ele>
        <time>2022-09-22T12:16:55Z</time>
      </trkpt>
      <trkpt lat="50.34795" lon="4.45264">
        <ele>214.4</ele>
        <time>2022-09-22T12:17:00Z</time>
      </trkpt>
      <trkpt lat="50.34793" lon="4.45269">
        <ele>214.4</ele>
        <time>2022-09-22T12:17:01Z</time>
      </trkpt>
      <trkpt lat="50.34784" lon="4.4528">
        <ele>214.8</ele>
        <time>2022-09-22T12:17:04Z</time>
      </trkpt>
      <trkpt lat="50.34768" lon="4.45291">
        <ele>215.4</ele>
        <time>2022-09-22T12:17:08Z</time>
      </trkpt>
      <trkpt lat="50.34747" lon="4.45301">
        <ele>216.2</ele>
        <time>2022-09-22T12:17:17Z</time>
      </trkpt>
      <trkpt lat="50.34721" lon="4.45325">
        <ele>216.8</ele>
        <time>2022-09-22T12:17:24Z</time>
      </trkpt>
      <trkpt lat="50.34713" lon="4.45334">
        <ele>217</ele>
        <time>2022-09-22T12:17:26Z</time>
      </trkpt>
      <trkpt lat="50.34695" lon="4.4536">
        <ele>217.4</ele>
        <time>2022-09-22T12:17:32Z</time>
      </trkpt>
      <trkpt lat="50.34674" lon="4.45395">
        <ele>217.6</ele>
        <time>2022-09-22T12:17:40Z</time>
      </trkpt>
      <trkpt lat="50.34629" lon="4.45464">
        <ele>218.4</ele>
        <time>2022-09-22T12:17:56Z</time>
      </trkpt>
      <trkpt lat="50.34597" lon="4.4551">
        <ele>219.2</ele>
        <time>2022-09-22T12:18:06Z</time>
      </trkpt>
      <trkpt lat="50.3458" lon="4.4553">
        <ele>219.4</ele>
        <time>2022-09-22T12:18:11Z</time>
      </trkpt>
      <trkpt lat="50.34564" lon="4.45553">
        <ele>219.6</ele>
        <time>2022-09-22T12:18:17Z</time>
      </trkpt>
      <trkpt lat="50.3455" lon="4.45577">
        <ele>220.2</ele>
        <time>2022-09-22T12:18:24Z</time>
      </trkpt>
      <trkpt lat="50.34538" lon="4.45591">
        <ele>220.6</ele>
        <time>2022-09-22T12:18:31Z</time>
      </trkpt>
      <trkpt lat="50.34509" lon="4.45572">
        <ele>221.6</ele>
        <time>2022-09-22T12:18:41Z</time>
      </trkpt>
      <trkpt lat="50.34506" lon="4.45572">
        <ele>221.6</ele>
        <time>2022-09-22T12:18:42Z</time>
      </trkpt>
      <trkpt lat="50.34499" lon="4.45584">
        <ele>221.8</ele>
        <time>2022-09-22T12:18:45Z</time>
      </trkpt>
      <trkpt lat="50.34496" lon="4.45609">
        <ele>222</ele>
        <time>2022-09-22T12:18:49Z</time>
      </trkpt>
      <trkpt lat="50.34482" lon="4.45649">
        <ele>222.2</ele>
        <time>2022-09-22T12:18:55Z</time>
      </trkpt>
      <trkpt lat="50.34471" lon="4.45672">
        <ele>222.2</ele>
        <time>2022-09-22T12:18:59Z</time>
      </trkpt>
      <trkpt lat="50.34407" lon="4.45747">
        <ele>222.4</ele>
        <time>2022-09-22T12:19:13Z</time>
      </trkpt>
      <trkpt lat="50.3439" lon="4.45781">
        <ele>222.4</ele>
        <time>2022-09-22T12:19:18Z</time>
      </trkpt>
      <trkpt lat="50.34385" lon="4.45796">
        <ele>222.4</ele>
        <time>2022-09-22T12:19:20Z</time>
      </trkpt>
      <trkpt lat="50.34372" lon="4.45879">
        <ele>222.6</ele>
        <time>2022-09-22T12:19:30Z</time>
      </trkpt>
      <trkpt lat="50.34362" lon="4.45909">
        <ele>222.6</ele>
        <time>2022-09-22T12:19:34Z</time>
      </trkpt>
      <trkpt lat="50.34344" lon="4.45947">
        <ele>222.8</ele>
        <time>2022-09-22T12:19:41Z</time>
      </trkpt>
      <trkpt lat="50.34341" lon="4.45969">
        <ele>222.8</ele>
        <time>2022-09-22T12:19:45Z</time>
      </trkpt>
      <trkpt lat="50.34342" lon="4.45973">
        <ele>222.8</ele>
        <time>2022-09-22T12:19:46Z</time>
      </trkpt>
      <trkpt lat="50.34348" lon="4.45982">
        <ele>222.8</ele>
        <time>2022-09-22T12:19:49Z</time>
      </trkpt>
      <trkpt lat="50.34369" lon="4.46006">
        <ele>223</ele>
        <time>2022-09-22T12:19:59Z</time>
      </trkpt>
      <trkpt lat="50.34433" lon="4.46085">
        <ele>223.4</ele>
        <time>2022-09-22T12:20:18Z</time>
      </trkpt>
      <trkpt lat="50.34436" lon="4.4609">
        <ele>223.6</ele>
        <time>2022-09-22T12:20:22Z</time>
      </trkpt>
      <trkpt lat="50.3444" lon="4.46093">
        <ele>224.6</ele>
        <time>2022-09-22T12:21:13Z</time>
      </trkpt>
      <trkpt lat="50.34491" lon="4.46154">
        <ele>224.8</ele>
        <time>2022-09-22T12:21:32Z</time>
      </trkpt>
      <trkpt lat="50.34523" lon="4.46182">
        <ele>225</ele>
        <time>2022-09-22T12:21:40Z</time>
      </trkpt>
      <trkpt lat="50.34601" lon="4.46245">
        <ele>225.2</ele>
        <time>2022-09-22T12:22:00Z</time>
      </trkpt>
      <trkpt lat="50.34613" lon="4.46256">
        <ele>225.2</ele>
        <time>2022-09-22T12:22:03Z</time>
      </trkpt>
      <trkpt lat="50.3462" lon="4.46266">
        <ele>225</ele>
        <time>2022-09-22T12:22:05Z</time>
      </trkpt>
      <trkpt lat="50.34627" lon="4.46286">
        <ele>224.8</ele>
        <time>2022-09-22T12:22:08Z</time>
      </trkpt>
      <trkpt lat="50.34629" lon="4.463">
        <ele>224.8</ele>
        <time>2022-09-22T12:22:10Z</time>
      </trkpt>
      <trkpt lat="50.34628" lon="4.46314">
        <ele>224.6</ele>
        <time>2022-09-22T12:22:12Z</time>
      </trkpt>
      <trkpt lat="50.34599" lon="4.46445">
        <ele>223.2</ele>
        <time>2022-09-22T12:22:28Z</time>
      </trkpt>
      <trkpt lat="50.34579" lon="4.46528">
        <ele>222</ele>
        <time>2022-09-22T12:22:41Z</time>
      </trkpt>
      <trkpt lat="50.34576" lon="4.46549">
        <ele>221.8</ele>
        <time>2022-09-22T12:22:48Z</time>
      </trkpt>
      <trkpt lat="50.34577" lon="4.46555">
        <ele>221.2</ele>
        <time>2022-09-22T12:22:55Z</time>
      </trkpt>
      <trkpt lat="50.34596" lon="4.46573">
        <ele>222.7</ele>
        <time>2022-09-22T12:23:04Z</time>
      </trkpt>
      <trkpt lat="50.34607" lon="4.46578">
        <ele>222.3</ele>
        <time>2022-09-22T12:23:10Z</time>
      </trkpt>
      <trkpt lat="50.34612" lon="4.46582">
        <ele>222</ele>
        <time>2022-09-22T12:23:13Z</time>
      </trkpt>
      <trkpt lat="50.3463" lon="4.46591">
        <ele>217.8</ele>
        <time>2022-09-22T12:23:21Z</time>
      </trkpt>
      <trkpt lat="50.34636" lon="4.46595">
        <ele>217.4</ele>
        <time>2022-09-22T12:23:23Z</time>
      </trkpt>
      <trkpt lat="50.34646" lon="4.46606">
        <ele>216.6</ele>
        <time>2022-09-22T12:23:28Z</time>
      </trkpt>
      <trkpt lat="50.34653" lon="4.46611">
        <ele>215.8</ele>
        <time>2022-09-22T12:23:31Z</time>
      </trkpt>
      <trkpt lat="50.34664" lon="4.46613">
        <ele>215.4</ele>
        <time>2022-09-22T12:23:34Z</time>
      </trkpt>
      <trkpt lat="50.34665" lon="4.46612">
        <ele>215.2</ele>
        <time>2022-09-22T12:23:35Z</time>
      </trkpt>
      <trkpt lat="50.34672" lon="4.46612">
        <ele>214.8</ele>
        <time>2022-09-22T12:23:38Z</time>
      </trkpt>
      <trkpt lat="50.34679" lon="4.4661">
        <ele>214.6</ele>
        <time>2022-09-22T12:23:40Z</time>
      </trkpt>
      <trkpt lat="50.34701" lon="4.46611">
        <ele>213.8</ele>
        <time>2022-09-22T12:23:46Z</time>
      </trkpt>
      <trkpt lat="50.34723" lon="4.46625">
        <ele>212</ele>
        <time>2022-09-22T12:23:54Z</time>
      </trkpt>
      <trkpt lat="50.34762" lon="4.46653">
        <ele>212</ele>
        <time>2022-09-22T12:24:06Z</time>
      </trkpt>
      <trkpt lat="50.34772" lon="4.46669">
        <ele>210.8</ele>
        <time>2022-09-22T12:24:09Z</time>
      </trkpt>
      <trkpt lat="50.34778" lon="4.46692">
        <ele>212</ele>
        <time>2022-09-22T12:24:13Z</time>
      </trkpt>
      <trkpt lat="50.3478" lon="4.46727">
        <ele>211.6</ele>
        <time>2022-09-22T12:24:20Z</time>
      </trkpt>
      <trkpt lat="50.34783" lon="4.46744">
        <ele>212.8</ele>
        <time>2022-09-22T12:24:24Z</time>
      </trkpt>
      <trkpt lat="50.34788" lon="4.46752">
        <ele>212.6</ele>
        <time>2022-09-22T12:24:27Z</time>
      </trkpt>
      <trkpt lat="50.34799" lon="4.46758">
        <ele>212.2</ele>
        <time>2022-09-22T12:24:30Z</time>
      </trkpt>
      <trkpt lat="50.34815" lon="4.46762">
        <ele>211.4</ele>
        <time>2022-09-22T12:24:35Z</time>
      </trkpt>
      <trkpt lat="50.34836" lon="4.46774">
        <ele>211.2</ele>
        <time>2022-09-22T12:24:43Z</time>
      </trkpt>
      <trkpt lat="50.34848" lon="4.46794">
        <ele>210.8</ele>
        <time>2022-09-22T12:24:49Z</time>
      </trkpt>
      <trkpt lat="50.34849" lon="4.46798">
        <ele>210.8</ele>
        <time>2022-09-22T12:24:50Z</time>
      </trkpt>
      <trkpt lat="50.34846" lon="4.46805">
        <ele>210.8</ele>
        <time>2022-09-22T12:24:53Z</time>
      </trkpt>
      <trkpt lat="50.34847" lon="4.46807">
        <ele>209.4</ele>
        <time>2022-09-22T12:26:33Z</time>
      </trkpt>
      <trkpt lat="50.34845" lon="4.4682">
        <ele>209.6</ele>
        <time>2022-09-22T12:26:37Z</time>
      </trkpt>
      <trkpt lat="50.3484" lon="4.46838">
        <ele>209.4</ele>
        <time>2022-09-22T12:26:42Z</time>
      </trkpt>
      <trkpt lat="50.34805" lon="4.46922">
        <ele>208.6</ele>
        <time>2022-09-22T12:27:01Z</time>
      </trkpt>
      <trkpt lat="50.34794" lon="4.46941">
        <ele>208.6</ele>
        <time>2022-09-22T12:27:05Z</time>
      </trkpt>
      <trkpt lat="50.34785" lon="4.4696">
        <ele>208.4</ele>
        <time>2022-09-22T12:27:09Z</time>
      </trkpt>
      <trkpt lat="50.34783" lon="4.46967">
        <ele>208.4</ele>
        <time>2022-09-22T12:27:11Z</time>
      </trkpt>
      <trkpt lat="50.34778" lon="4.46975">
        <ele>208.4</ele>
        <time>2022-09-22T12:27:13Z</time>
      </trkpt>
      <trkpt lat="50.34755" lon="4.47026">
        <ele>207.4</ele>
        <time>2022-09-22T12:27:24Z</time>
      </trkpt>
      <trkpt lat="50.34739" lon="4.47054">
        <ele>207</ele>
        <time>2022-09-22T12:27:30Z</time>
      </trkpt>
      <trkpt lat="50.34714" lon="4.47089">
        <ele>206.6</ele>
        <time>2022-09-22T12:27:38Z</time>
      </trkpt>
      <trkpt lat="50.34703" lon="4.47108">
        <ele>206.6</ele>
        <time>2022-09-22T12:27:42Z</time>
      </trkpt>
      <trkpt lat="50.34686" lon="4.47145">
        <ele>207.8</ele>
        <time>2022-09-22T12:27:50Z</time>
      </trkpt>
      <trkpt lat="50.34674" lon="4.4718">
        <ele>207.4</ele>
        <time>2022-09-22T12:27:57Z</time>
      </trkpt>
      <trkpt lat="50.34658" lon="4.47213">
        <ele>208</ele>
        <time>2022-09-22T12:28:04Z</time>
      </trkpt>
      <trkpt lat="50.34641" lon="4.47241">
        <ele>209</ele>
        <time>2022-09-22T12:28:10Z</time>
      </trkpt>
      <trkpt lat="50.34605" lon="4.47243">
        <ele>210.4</ele>
        <time>2022-09-22T12:28:19Z</time>
      </trkpt>
      <trkpt lat="50.34551" lon="4.47251">
        <ele>212.2</ele>
        <time>2022-09-22T12:28:32Z</time>
      </trkpt>
      <trkpt lat="50.34546" lon="4.47246">
        <ele>212.6</ele>
        <time>2022-09-22T12:28:34Z</time>
      </trkpt>
      <trkpt lat="50.34544" lon="4.47241">
        <ele>212.8</ele>
        <time>2022-09-22T12:28:35Z</time>
      </trkpt>
      <trkpt lat="50.34539" lon="4.47204">
        <ele>213.6</ele>
        <time>2022-09-22T12:28:41Z</time>
      </trkpt>
      <trkpt lat="50.34532" lon="4.47185">
        <ele>214.2</ele>
        <time>2022-09-22T12:28:45Z</time>
      </trkpt>
      <trkpt lat="50.3452" lon="4.47184">
        <ele>214.8</ele>
        <time>2022-09-22T12:28:48Z</time>
      </trkpt>
      <trkpt lat="50.34503" lon="4.4718">
        <ele>215.4</ele>
        <time>2022-09-22T12:28:53Z</time>
      </trkpt>
      <trkpt lat="50.34501" lon="4.4716">
        <ele>215.8</ele>
        <time>2022-09-22T12:28:57Z</time>
      </trkpt>
      <trkpt lat="50.34498" lon="4.47151">
        <ele>216</ele>
        <time>2022-09-22T12:28:59Z</time>
      </trkpt>
      <trkpt lat="50.34491" lon="4.47146">
        <ele>216.2</ele>
        <time>2022-09-22T12:29:01Z</time>
      </trkpt>
      <trkpt lat="50.34475" lon="4.47148">
        <ele>216.8</ele>
        <time>2022-09-22T12:29:05Z</time>
      </trkpt>
      <trkpt lat="50.34438" lon="4.47156">
        <ele>217.8</ele>
        <time>2022-09-22T12:29:14Z</time>
      </trkpt>
      <trkpt lat="50.34426" lon="4.47163">
        <ele>218.2</ele>
        <time>2022-09-22T12:29:17Z</time>
      </trkpt>
      <trkpt lat="50.34407" lon="4.47185">
        <ele>218.8</ele>
        <time>2022-09-22T12:29:23Z</time>
      </trkpt>
      <trkpt lat="50.34387" lon="4.47217">
        <ele>219.4</ele>
        <time>2022-09-22T12:29:30Z</time>
      </trkpt>
      <trkpt lat="50.34355" lon="4.47256">
        <ele>220.8</ele>
        <time>2022-09-22T12:29:42Z</time>
      </trkpt>
      <trkpt lat="50.34345" lon="4.47266">
        <ele>221</ele>
        <time>2022-09-22T12:29:46Z</time>
      </trkpt>
      <trkpt lat="50.3433" lon="4.47274">
        <ele>221.8</ele>
        <time>2022-09-22T12:29:52Z</time>
      </trkpt>
      <trkpt lat="50.34323" lon="4.47286">
        <ele>222.4</ele>
        <time>2022-09-22T12:29:57Z</time>
      </trkpt>
      <trkpt lat="50.34318" lon="4.47301">
        <ele>222.8</ele>
        <time>2022-09-22T12:30:01Z</time>
      </trkpt>
      <trkpt lat="50.34311" lon="4.47314">
        <ele>223.2</ele>
        <time>2022-09-22T12:30:04Z</time>
      </trkpt>
      <trkpt lat="50.34308" lon="4.47327">
        <ele>223.4</ele>
        <time>2022-09-22T12:30:06Z</time>
      </trkpt>
      <trkpt lat="50.34312" lon="4.47345">
        <ele>223.6</ele>
        <time>2022-09-22T12:30:09Z</time>
      </trkpt>
      <trkpt lat="50.34318" lon="4.47353">
        <ele>223.8</ele>
        <time>2022-09-22T12:30:11Z</time>
      </trkpt>
      <trkpt lat="50.34322" lon="4.47354">
        <ele>223.8</ele>
        <time>2022-09-22T12:30:12Z</time>
      </trkpt>
      <trkpt lat="50.34327" lon="4.47353">
        <ele>223.8</ele>
        <time>2022-09-22T12:30:13Z</time>
      </trkpt>
      <trkpt lat="50.34335" lon="4.47354">
        <ele>224</ele>
        <time>2022-09-22T12:30:15Z</time>
      </trkpt>
      <trkpt lat="50.34344" lon="4.47376">
        <ele>224.6</ele>
        <time>2022-09-22T12:30:19Z</time>
      </trkpt>
      <trkpt lat="50.34347" lon="4.47392">
        <ele>224.6</ele>
        <time>2022-09-22T12:30:21Z</time>
      </trkpt>
      <trkpt lat="50.34351" lon="4.47451">
        <ele>225</ele>
        <time>2022-09-22T12:30:29Z</time>
      </trkpt>
      <trkpt lat="50.34354" lon="4.47467">
        <ele>225.2</ele>
        <time>2022-09-22T12:30:32Z</time>
      </trkpt>
      <trkpt lat="50.34359" lon="4.4747">
        <ele>225.2</ele>
        <time>2022-09-22T12:30:34Z</time>
      </trkpt>
      <trkpt lat="50.34374" lon="4.47468">
        <ele>225.4</ele>
        <time>2022-09-22T12:30:38Z</time>
      </trkpt>
      <trkpt lat="50.34398" lon="4.4746">
        <ele>226</ele>
        <time>2022-09-22T12:30:45Z</time>
      </trkpt>
      <trkpt lat="50.34409" lon="4.47444">
        <ele>226.4</ele>
        <time>2022-09-22T12:30:49Z</time>
      </trkpt>
      <trkpt lat="50.34407" lon="4.47388">
        <ele>227.4</ele>
        <time>2022-09-22T12:31:00Z</time>
      </trkpt>
      <trkpt lat="50.34406" lon="4.47384">
        <ele>227.4</ele>
        <time>2022-09-22T12:31:01Z</time>
      </trkpt>
      <trkpt lat="50.34407" lon="4.47377">
        <ele>227.6</ele>
        <time>2022-09-22T12:31:03Z</time>
      </trkpt>
      <trkpt lat="50.34417" lon="4.4737">
        <ele>227.8</ele>
        <time>2022-09-22T12:31:07Z</time>
      </trkpt>
      <trkpt lat="50.34428" lon="4.47365">
        <ele>228</ele>
        <time>2022-09-22T12:31:11Z</time>
      </trkpt>
      <trkpt lat="50.34429" lon="4.4736">
        <ele>228</ele>
        <time>2022-09-22T12:31:12Z</time>
      </trkpt>
      <trkpt lat="50.34428" lon="4.47334">
        <ele>228</ele>
        <time>2022-09-22T12:31:17Z</time>
      </trkpt>
      <trkpt lat="50.34429" lon="4.47323">
        <ele>228.2</ele>
        <time>2022-09-22T12:31:21Z</time>
      </trkpt>
      <trkpt lat="50.3443" lon="4.47322">
        <ele>228.2</ele>
        <time>2022-09-22T12:31:22Z</time>
      </trkpt>
      <trkpt lat="50.34452" lon="4.47319">
        <ele>228.4</ele>
        <time>2022-09-22T12:31:31Z</time>
      </trkpt>
      <trkpt lat="50.3447" lon="4.47315">
        <ele>228.4</ele>
        <time>2022-09-22T12:31:38Z</time>
      </trkpt>
      <trkpt lat="50.34483" lon="4.47315">
        <ele>228.4</ele>
        <time>2022-09-22T12:31:43Z</time>
      </trkpt>
      <trkpt lat="50.34487" lon="4.47322">
        <ele>228.4</ele>
        <time>2022-09-22T12:31:45Z</time>
      </trkpt>
      <trkpt lat="50.34492" lon="4.47321">
        <ele>228.2</ele>
        <time>2022-09-22T12:31:47Z</time>
      </trkpt>
      <trkpt lat="50.34512" lon="4.47311">
        <ele>227.8</ele>
        <time>2022-09-22T12:31:53Z</time>
      </trkpt>
      <trkpt lat="50.34534" lon="4.47304">
        <ele>227.6</ele>
        <time>2022-09-22T12:31:59Z</time>
      </trkpt>
      <trkpt lat="50.34558" lon="4.47301">
        <ele>227.4</ele>
        <time>2022-09-22T12:32:05Z</time>
      </trkpt>
      <trkpt lat="50.34581" lon="4.47296">
        <ele>227.4</ele>
        <time>2022-09-22T12:32:10Z</time>
      </trkpt>
      <trkpt lat="50.34607" lon="4.47295">
        <ele>227.2</ele>
        <time>2022-09-22T12:32:16Z</time>
      </trkpt>
      <trkpt lat="50.34616" lon="4.47304">
        <ele>227</ele>
        <time>2022-09-22T12:32:20Z</time>
      </trkpt>
      <trkpt lat="50.34615" lon="4.47327">
        <ele>226.6</ele>
        <time>2022-09-22T12:32:29Z</time>
      </trkpt>
      <trkpt lat="50.34617" lon="4.47353">
        <ele>226</ele>
        <time>2022-09-22T12:33:04Z</time>
      </trkpt>
      <trkpt lat="50.34623" lon="4.47374">
        <ele>226.2</ele>
        <time>2022-09-22T12:33:09Z</time>
      </trkpt>
      <trkpt lat="50.34638" lon="4.47412">
        <ele>226.4</ele>
        <time>2022-09-22T12:33:18Z</time>
      </trkpt>
      <trkpt lat="50.3466" lon="4.47458">
        <ele>226.2</ele>
        <time>2022-09-22T12:33:31Z</time>
      </trkpt>
      <trkpt lat="50.34679" lon="4.47506">
        <ele>226.6</ele>
        <time>2022-09-22T12:33:46Z</time>
      </trkpt>
      <trkpt lat="50.34705" lon="4.47567">
        <ele>226.8</ele>
        <time>2022-09-22T12:34:04Z</time>
      </trkpt>
      <trkpt lat="50.34723" lon="4.47604">
        <ele>227</ele>
        <time>2022-09-22T12:34:15Z</time>
      </trkpt>
      <trkpt lat="50.34724" lon="4.47608">
        <ele>227</ele>
        <time>2022-09-22T12:34:16Z</time>
      </trkpt>
      <trkpt lat="50.34744" lon="4.47649">
        <ele>226.8</ele>
        <time>2022-09-22T12:34:26Z</time>
      </trkpt>
      <trkpt lat="50.34753" lon="4.47673">
        <ele>226.2</ele>
        <time>2022-09-22T12:34:31Z</time>
      </trkpt>
      <trkpt lat="50.34764" lon="4.47695">
        <ele>226</ele>
        <time>2022-09-22T12:34:37Z</time>
      </trkpt>
      <trkpt lat="50.34799" lon="4.47741">
        <ele>225</ele>
        <time>2022-09-22T12:34:51Z</time>
      </trkpt>
      <trkpt lat="50.34801" lon="4.47745">
        <ele>224.8</ele>
        <time>2022-09-22T12:34:52Z</time>
      </trkpt>
      <trkpt lat="50.3481" lon="4.47756">
        <ele>224.4</ele>
        <time>2022-09-22T12:34:55Z</time>
      </trkpt>
      <trkpt lat="50.34828" lon="4.47773">
        <ele>224</ele>
        <time>2022-09-22T12:34:59Z</time>
      </trkpt>
      <trkpt lat="50.34858" lon="4.47807">
        <ele>223.2</ele>
        <time>2022-09-22T12:35:05Z</time>
      </trkpt>
      <trkpt lat="50.34888" lon="4.47838">
        <ele>222.4</ele>
        <time>2022-09-22T12:35:11Z</time>
      </trkpt>
      <trkpt lat="50.34909" lon="4.47857">
        <ele>222</ele>
        <time>2022-09-22T12:35:15Z</time>
      </trkpt>
      <trkpt lat="50.3495" lon="4.479">
        <ele>220.8</ele>
        <time>2022-09-22T12:35:25Z</time>
      </trkpt>
      <trkpt lat="50.34975" lon="4.4793">
        <ele>220.2</ele>
        <time>2022-09-22T12:35:32Z</time>
      </trkpt>
      <trkpt lat="50.35025" lon="4.47984">
        <ele>219.4</ele>
        <time>2022-09-22T12:35:46Z</time>
      </trkpt>
      <trkpt lat="50.35049" lon="4.48007">
        <ele>219.2</ele>
        <time>2022-09-22T12:35:53Z</time>
      </trkpt>
      <trkpt lat="50.35064" lon="4.48026">
        <ele>219.2</ele>
        <time>2022-09-22T12:35:59Z</time>
      </trkpt>
      <trkpt lat="50.35064" lon="4.4803">
        <ele>219.2</ele>
        <time>2022-09-22T12:36:00Z</time>
      </trkpt>
      <trkpt lat="50.3506" lon="4.48038">
        <ele>219.2</ele>
        <time>2022-09-22T12:36:02Z</time>
      </trkpt>
      <trkpt lat="50.35013" lon="4.48097">
        <ele>219.4</ele>
        <time>2022-09-22T12:36:17Z</time>
      </trkpt>
      <trkpt lat="50.34988" lon="4.48131">
        <ele>220.4</ele>
        <time>2022-09-22T12:36:28Z</time>
      </trkpt>
      <trkpt lat="50.34942" lon="4.48183">
        <ele>221.8</ele>
        <time>2022-09-22T12:36:42Z</time>
      </trkpt>
      <trkpt lat="50.34926" lon="4.48205">
        <ele>222.4</ele>
        <time>2022-09-22T12:36:49Z</time>
      </trkpt>
      <trkpt lat="50.3489" lon="4.48246">
        <ele>223.4</ele>
        <time>2022-09-22T12:37:13Z</time>
      </trkpt>
      <trkpt lat="50.34814" lon="4.48345">
        <ele>224</ele>
        <time>2022-09-22T12:37:37Z</time>
      </trkpt>
      <trkpt lat="50.34773" lon="4.48407">
        <ele>224</ele>
        <time>2022-09-22T12:37:52Z</time>
      </trkpt>
      <trkpt lat="50.34754" lon="4.48442">
        <ele>223.8</ele>
        <time>2022-09-22T12:37:59Z</time>
      </trkpt>
      <trkpt lat="50.34717" lon="4.48501">
        <ele>223.8</ele>
        <time>2022-09-22T12:38:11Z</time>
      </trkpt>
      <trkpt lat="50.34692" lon="4.48546">
        <ele>223.8</ele>
        <time>2022-09-22T12:38:19Z</time>
      </trkpt>
      <trkpt lat="50.34666" lon="4.48583">
        <ele>223.8</ele>
        <time>2022-09-22T12:38:26Z</time>
      </trkpt>
      <trkpt lat="50.34639" lon="4.48603">
        <ele>223.8</ele>
        <time>2022-09-22T12:38:36Z</time>
      </trkpt>
      <trkpt lat="50.3464" lon="4.48602">
        <ele>223.6</ele>
        <time>2022-09-22T12:38:44Z</time>
      </trkpt>
      <trkpt lat="50.34637" lon="4.48607">
        <ele>223.6</ele>
        <time>2022-09-22T12:39:47Z</time>
      </trkpt>
      <trkpt lat="50.3464" lon="4.48639">
        <ele>223.4</ele>
        <time>2022-09-22T12:39:55Z</time>
      </trkpt>
      <trkpt lat="50.34651" lon="4.48727">
        <ele>223.6</ele>
        <time>2022-09-22T12:40:10Z</time>
      </trkpt>
      <trkpt lat="50.34665" lon="4.48787">
        <ele>223.6</ele>
        <time>2022-09-22T12:40:19Z</time>
      </trkpt>
      <trkpt lat="50.34696" lon="4.48901">
        <ele>223.6</ele>
        <time>2022-09-22T12:40:35Z</time>
      </trkpt>
      <trkpt lat="50.34705" lon="4.48959">
        <ele>223.8</ele>
        <time>2022-09-22T12:40:43Z</time>
      </trkpt>
      <trkpt lat="50.3471" lon="4.49011">
        <ele>224</ele>
        <time>2022-09-22T12:40:50Z</time>
      </trkpt>
      <trkpt lat="50.34712" lon="4.4908">
        <ele>224</ele>
        <time>2022-09-22T12:40:59Z</time>
      </trkpt>
      <trkpt lat="50.34711" lon="4.49159">
        <ele>224.4</ele>
        <time>2022-09-22T12:41:09Z</time>
      </trkpt>
      <trkpt lat="50.34708" lon="4.49217">
        <ele>224.6</ele>
        <time>2022-09-22T12:41:16Z</time>
      </trkpt>
      <trkpt lat="50.34701" lon="4.49303">
        <ele>224.8</ele>
        <time>2022-09-22T12:41:26Z</time>
      </trkpt>
      <trkpt lat="50.34689" lon="4.49404">
        <ele>225.2</ele>
        <time>2022-09-22T12:41:39Z</time>
      </trkpt>
      <trkpt lat="50.34681" lon="4.49446">
        <ele>229</ele>
        <time>2022-09-22T12:41:45Z</time>
      </trkpt>
      <trkpt lat="50.34675" lon="4.49457">
        <ele>225.8</ele>
        <time>2022-09-22T12:43:08Z</time>
      </trkpt>
      <trkpt lat="50.34666" lon="4.49465">
        <ele>225.8</ele>
        <time>2022-09-22T12:43:15Z</time>
      </trkpt>
      <trkpt lat="50.3464" lon="4.49492">
        <ele>225.8</ele>
        <time>2022-09-22T12:43:28Z</time>
      </trkpt>
      <trkpt lat="50.34616" lon="4.49519">
        <ele>225.8</ele>
        <time>2022-09-22T12:43:36Z</time>
      </trkpt>
      <trkpt lat="50.3459" lon="4.49558">
        <ele>225.4</ele>
        <time>2022-09-22T12:43:44Z</time>
      </trkpt>
      <trkpt lat="50.34509" lon="4.497">
        <ele>224.4</ele>
        <time>2022-09-22T12:44:11Z</time>
      </trkpt>
      <trkpt lat="50.34426" lon="4.49842">
        <ele>224.6</ele>
        <time>2022-09-22T12:44:38Z</time>
      </trkpt>
      <trkpt lat="50.34412" lon="4.4987">
        <ele>224.4</ele>
        <time>2022-09-22T12:44:45Z</time>
      </trkpt>
      <trkpt lat="50.34391" lon="4.49923">
        <ele>224.8</ele>
        <time>2022-09-22T12:44:57Z</time>
      </trkpt>
      <trkpt lat="50.34392" lon="4.49944">
        <ele>225</ele>
        <time>2022-09-22T12:45:01Z</time>
      </trkpt>
      <trkpt lat="50.34545" lon="4.50148">
        <ele>225.4</ele>
        <time>2022-09-22T12:45:46Z</time>
      </trkpt>
      <trkpt lat="50.34618" lon="4.50249">
        <ele>224.8</ele>
        <time>2022-09-22T12:46:04Z</time>
      </trkpt>
      <trkpt lat="50.34652" lon="4.5029">
        <ele>224.2</ele>
        <time>2022-09-22T12:46:11Z</time>
      </trkpt>
      <trkpt lat="50.34692" lon="4.50331">
        <ele>223.2</ele>
        <time>2022-09-22T12:46:19Z</time>
      </trkpt>
      <trkpt lat="50.34713" lon="4.5035">
        <ele>222.6</ele>
        <time>2022-09-22T12:46:23Z</time>
      </trkpt>
      <trkpt lat="50.34721" lon="4.5036">
        <ele>222.4</ele>
        <time>2022-09-22T12:46:25Z</time>
      </trkpt>
      <trkpt lat="50.34838" lon="4.50462">
        <ele>219.6</ele>
        <time>2022-09-22T12:46:47Z</time>
      </trkpt>
      <trkpt lat="50.34898" lon="4.50524">
        <ele>218.8</ele>
        <time>2022-09-22T12:47:01Z</time>
      </trkpt>
      <trkpt lat="50.34913" lon="4.50546">
        <ele>218.6</ele>
        <time>2022-09-22T12:47:05Z</time>
      </trkpt>
      <trkpt lat="50.34936" lon="4.50586">
        <ele>218.2</ele>
        <time>2022-09-22T12:47:12Z</time>
      </trkpt>
      <trkpt lat="50.34943" lon="4.50596">
        <ele>218</ele>
        <time>2022-09-22T12:47:14Z</time>
      </trkpt>
      <trkpt lat="50.34969" lon="4.50641">
        <ele>217.4</ele>
        <time>2022-09-22T12:47:23Z</time>
      </trkpt>
      <trkpt lat="50.3497" lon="4.50647">
        <ele>217.2</ele>
        <time>2022-09-22T12:47:24Z</time>
      </trkpt>
      <trkpt lat="50.34967" lon="4.50659">
        <ele>217.2</ele>
        <time>2022-09-22T12:47:26Z</time>
      </trkpt>
      <trkpt lat="50.34869" lon="4.50803">
        <ele>213.4</ele>
        <time>2022-09-22T12:47:44Z</time>
      </trkpt>
      <trkpt lat="50.34851" lon="4.50831">
        <ele>212.4</ele>
        <time>2022-09-22T12:47:48Z</time>
      </trkpt>
      <trkpt lat="50.34849" lon="4.50847">
        <ele>211.8</ele>
        <time>2022-09-22T12:47:50Z</time>
      </trkpt>
      <trkpt lat="50.34858" lon="4.50871">
        <ele>210.8</ele>
        <time>2022-09-22T12:47:53Z</time>
      </trkpt>
      <trkpt lat="50.34914" lon="4.50993">
        <ele>207.4</ele>
        <time>2022-09-22T12:48:06Z</time>
      </trkpt>
      <trkpt lat="50.34952" lon="4.51067">
        <ele>205.2</ele>
        <time>2022-09-22T12:48:14Z</time>
      </trkpt>
      <trkpt lat="50.34995" lon="4.51138">
        <ele>203</ele>
        <time>2022-09-22T12:48:23Z</time>
      </trkpt>
      <trkpt lat="50.35007" lon="4.51166">
        <ele>202.4</ele>
        <time>2022-09-22T12:48:26Z</time>
      </trkpt>
      <trkpt lat="50.35012" lon="4.51185">
        <ele>202</ele>
        <time>2022-09-22T12:48:28Z</time>
      </trkpt>
      <trkpt lat="50.35016" lon="4.51227">
        <ele>201</ele>
        <time>2022-09-22T12:48:32Z</time>
      </trkpt>
      <trkpt lat="50.35018" lon="4.51237">
        <ele>200.8</ele>
        <time>2022-09-22T12:48:33Z</time>
      </trkpt>
      <trkpt lat="50.35045" lon="4.51315">
        <ele>198.8</ele>
        <time>2022-09-22T12:48:42Z</time>
      </trkpt>
      <trkpt lat="50.35053" lon="4.51362">
        <ele>197.8</ele>
        <time>2022-09-22T12:48:47Z</time>
      </trkpt>
      <trkpt lat="50.35058" lon="4.5138">
        <ele>197.4</ele>
        <time>2022-09-22T12:48:49Z</time>
      </trkpt>
      <trkpt lat="50.35068" lon="4.51405">
        <ele>196.8</ele>
        <time>2022-09-22T12:48:52Z</time>
      </trkpt>
      <trkpt lat="50.35112" lon="4.51487">
        <ele>195</ele>
        <time>2022-09-22T12:49:04Z</time>
      </trkpt>
      <trkpt lat="50.35116" lon="4.51511">
        <ele>194.6</ele>
        <time>2022-09-22T12:49:07Z</time>
      </trkpt>
      <trkpt lat="50.35117" lon="4.51529">
        <ele>194.2</ele>
        <time>2022-09-22T12:49:09Z</time>
      </trkpt>
      <trkpt lat="50.35127" lon="4.51567">
        <ele>193.4</ele>
        <time>2022-09-22T12:49:15Z</time>
      </trkpt>
      <trkpt lat="50.35129" lon="4.5158">
        <ele>191.6</ele>
        <time>2022-09-22T12:49:32Z</time>
      </trkpt>
      <trkpt lat="50.35143" lon="4.51624">
        <ele>190.2</ele>
        <time>2022-09-22T12:49:44Z</time>
      </trkpt>
      <trkpt lat="50.35143" lon="4.51637">
        <ele>189.8</ele>
        <time>2022-09-22T12:49:47Z</time>
      </trkpt>
      <trkpt lat="50.35135" lon="4.51662">
        <ele>189</ele>
        <time>2022-09-22T12:49:52Z</time>
      </trkpt>
      <trkpt lat="50.35123" lon="4.5169">
        <ele>188.2</ele>
        <time>2022-09-22T12:49:56Z</time>
      </trkpt>
      <trkpt lat="50.3512" lon="4.517">
        <ele>188</ele>
        <time>2022-09-22T12:49:57Z</time>
      </trkpt>
      <trkpt lat="50.35119" lon="4.5171">
        <ele>187.8</ele>
        <time>2022-09-22T12:49:58Z</time>
      </trkpt>
      <trkpt lat="50.35121" lon="4.51732">
        <ele>187.4</ele>
        <time>2022-09-22T12:50:00Z</time>
      </trkpt>
      <trkpt lat="50.35133" lon="4.51794">
        <ele>186.4</ele>
        <time>2022-09-22T12:50:06Z</time>
      </trkpt>
      <trkpt lat="50.35135" lon="4.51814">
        <ele>186.2</ele>
        <time>2022-09-22T12:50:08Z</time>
      </trkpt>
      <trkpt lat="50.35137" lon="4.51904">
        <ele>184.6</ele>
        <time>2022-09-22T12:50:18Z</time>
      </trkpt>
      <trkpt lat="50.35145" lon="4.5199">
        <ele>183.8</ele>
        <time>2022-09-22T12:50:30Z</time>
      </trkpt>
      <trkpt lat="50.35149" lon="4.52013">
        <ele>183.6</ele>
        <time>2022-09-22T12:50:33Z</time>
      </trkpt>
      <trkpt lat="50.3516" lon="4.52053">
        <ele>183.2</ele>
        <time>2022-09-22T12:50:38Z</time>
      </trkpt>
      <trkpt lat="50.35165" lon="4.52077">
        <ele>182.6</ele>
        <time>2022-09-22T12:50:41Z</time>
      </trkpt>
      <trkpt lat="50.35162" lon="4.52096">
        <ele>182.2</ele>
        <time>2022-09-22T12:50:43Z</time>
      </trkpt>
      <trkpt lat="50.35148" lon="4.52151">
        <ele>180.8</ele>
        <time>2022-09-22T12:50:49Z</time>
      </trkpt>
      <trkpt lat="50.35147" lon="4.52169">
        <ele>180.2</ele>
        <time>2022-09-22T12:50:51Z</time>
      </trkpt>
      <trkpt lat="50.35149" lon="4.52178">
        <ele>180</ele>
        <time>2022-09-22T12:50:52Z</time>
      </trkpt>
      <trkpt lat="50.35222" lon="4.52364">
        <ele>175.8</ele>
        <time>2022-09-22T12:51:19Z</time>
      </trkpt>
      <trkpt lat="50.35233" lon="4.5241">
        <ele>175.2</ele>
        <time>2022-09-22T12:51:25Z</time>
      </trkpt>
      <trkpt lat="50.35257" lon="4.52529">
        <ele>174.6</ele>
        <time>2022-09-22T12:51:41Z</time>
      </trkpt>
      <trkpt lat="50.35273" lon="4.5259">
        <ele>173.8</ele>
        <time>2022-09-22T12:51:50Z</time>
      </trkpt>
      <trkpt lat="50.3528" lon="4.52607">
        <ele>173.6</ele>
        <time>2022-09-22T12:51:53Z</time>
      </trkpt>
      <trkpt lat="50.35299" lon="4.5264">
        <ele>173.4</ele>
        <time>2022-09-22T12:51:59Z</time>
      </trkpt>
      <trkpt lat="50.35315" lon="4.52657">
        <ele>173.4</ele>
        <time>2022-09-22T12:52:03Z</time>
      </trkpt>
      <trkpt lat="50.35323" lon="4.52664">
        <ele>173.4</ele>
        <time>2022-09-22T12:52:05Z</time>
      </trkpt>
      <trkpt lat="50.35348" lon="4.52681">
        <ele>173.6</ele>
        <time>2022-09-22T12:52:11Z</time>
      </trkpt>
      <trkpt lat="50.35376" lon="4.52706">
        <ele>174.4</ele>
        <time>2022-09-22T12:52:19Z</time>
      </trkpt>
      <trkpt lat="50.35388" lon="4.52725">
        <ele>174.6</ele>
        <time>2022-09-22T12:52:24Z</time>
      </trkpt>
      <trkpt lat="50.35394" lon="4.52738">
        <ele>174.6</ele>
        <time>2022-09-22T12:52:27Z</time>
      </trkpt>
      <trkpt lat="50.35411" lon="4.52767">
        <ele>174.6</ele>
        <time>2022-09-22T12:52:34Z</time>
      </trkpt>
      <trkpt lat="50.35437" lon="4.52822">
        <ele>174</ele>
        <time>2022-09-22T12:52:46Z</time>
      </trkpt>
      <trkpt lat="50.35457" lon="4.5286">
        <ele>173.8</ele>
        <time>2022-09-22T12:52:53Z</time>
      </trkpt>
      <trkpt lat="50.35479" lon="4.52909">
        <ele>170.8</ele>
        <time>2022-09-22T12:54:09Z</time>
      </trkpt>
      <trkpt lat="50.35489" lon="4.52935">
        <ele>171</ele>
        <time>2022-09-22T12:54:15Z</time>
      </trkpt>
      <trkpt lat="50.35508" lon="4.52973">
        <ele>171.4</ele>
        <time>2022-09-22T12:54:22Z</time>
      </trkpt>
      <trkpt lat="50.35529" lon="4.53011">
        <ele>171</ele>
        <time>2022-09-22T12:54:29Z</time>
      </trkpt>
      <trkpt lat="50.35557" lon="4.53051">
        <ele>170.6</ele>
        <time>2022-09-22T12:54:41Z</time>
      </trkpt>
      <trkpt lat="50.35554" lon="4.53065">
        <ele>170.6</ele>
        <time>2022-09-22T12:54:44Z</time>
      </trkpt>
      <trkpt lat="50.35522" lon="4.53133">
        <ele>169.8</ele>
        <time>2022-09-22T12:54:54Z</time>
      </trkpt>
      <trkpt lat="50.35506" lon="4.5316">
        <ele>169.2</ele>
        <time>2022-09-22T12:54:58Z</time>
      </trkpt>
      <trkpt lat="50.35501" lon="4.53165">
        <ele>169</ele>
        <time>2022-09-22T12:54:59Z</time>
      </trkpt>
      <trkpt lat="50.35496" lon="4.53168">
        <ele>168.8</ele>
        <time>2022-09-22T12:55:00Z</time>
      </trkpt>
      <trkpt lat="50.35482" lon="4.53169">
        <ele>168.2</ele>
        <time>2022-09-22T12:55:03Z</time>
      </trkpt>
      <trkpt lat="50.35466" lon="4.53163">
        <ele>167.4</ele>
        <time>2022-09-22T12:55:08Z</time>
      </trkpt>
      <trkpt lat="50.35462" lon="4.5316">
        <ele>167</ele>
        <time>2022-09-22T12:55:11Z</time>
      </trkpt>
      <trkpt lat="50.35458" lon="4.53166">
        <ele>166.8</ele>
        <time>2022-09-22T12:55:14Z</time>
      </trkpt>
      <trkpt lat="50.35461" lon="4.53189">
        <ele>166.2</ele>
        <time>2022-09-22T12:55:19Z</time>
      </trkpt>
      <trkpt lat="50.35462" lon="4.5321">
        <ele>165.6</ele>
        <time>2022-09-22T12:55:22Z</time>
      </trkpt>
      <trkpt lat="50.35462" lon="4.53266">
        <ele>165</ele>
        <time>2022-09-22T12:55:31Z</time>
      </trkpt>
      <trkpt lat="50.35458" lon="4.53276">
        <ele>164.8</ele>
        <time>2022-09-22T12:55:33Z</time>
      </trkpt>
      <trkpt lat="50.35437" lon="4.53304">
        <ele>164.2</ele>
        <time>2022-09-22T12:55:39Z</time>
      </trkpt>
      <trkpt lat="50.35433" lon="4.53316">
        <ele>164</ele>
        <time>2022-09-22T12:55:41Z</time>
      </trkpt>
      <trkpt lat="50.35435" lon="4.53348">
        <ele>164</ele>
        <time>2022-09-22T12:55:47Z</time>
      </trkpt>
      <trkpt lat="50.35438" lon="4.53366">
        <ele>163.4</ele>
        <time>2022-09-22T12:55:51Z</time>
      </trkpt>
      <trkpt lat="50.35432" lon="4.53411">
        <ele>165.2</ele>
        <time>2022-09-22T12:56:02Z</time>
      </trkpt>
      <trkpt lat="50.35416" lon="4.5345">
        <ele>164.8</ele>
        <time>2022-09-22T12:56:12Z</time>
      </trkpt>
      <trkpt lat="50.35394" lon="4.53493">
        <ele>164</ele>
        <time>2022-09-22T12:56:22Z</time>
      </trkpt>
      <trkpt lat="50.35388" lon="4.53512">
        <ele>164.6</ele>
        <time>2022-09-22T12:56:26Z</time>
      </trkpt>
      <trkpt lat="50.35381" lon="4.53515">
        <ele>164.4</ele>
        <time>2022-09-22T12:56:29Z</time>
      </trkpt>
      <trkpt lat="50.35364" lon="4.53509">
        <ele>164.6</ele>
        <time>2022-09-22T12:56:34Z</time>
      </trkpt>
      <trkpt lat="50.35351" lon="4.53513">
        <ele>164.2</ele>
        <time>2022-09-22T12:56:38Z</time>
      </trkpt>
      <trkpt lat="50.35326" lon="4.53565">
        <ele>165.4</ele>
        <time>2022-09-22T12:56:50Z</time>
      </trkpt>
      <trkpt lat="50.35321" lon="4.53573">
        <ele>165.6</ele>
        <time>2022-09-22T12:56:52Z</time>
      </trkpt>
      <trkpt lat="50.35293" lon="4.53606">
        <ele>166</ele>
        <time>2022-09-22T12:57:02Z</time>
      </trkpt>
      <trkpt lat="50.35273" lon="4.53634">
        <ele>166.6</ele>
        <time>2022-09-22T12:57:08Z</time>
      </trkpt>
      <trkpt lat="50.35247" lon="4.53667">
        <ele>167.4</ele>
        <time>2022-09-22T12:57:15Z</time>
      </trkpt>
      <trkpt lat="50.35219" lon="4.53699">
        <ele>168.4</ele>
        <time>2022-09-22T12:57:23Z</time>
      </trkpt>
      <trkpt lat="50.35212" lon="4.53717">
        <ele>168.8</ele>
        <time>2022-09-22T12:57:26Z</time>
      </trkpt>
      <trkpt lat="50.35192" lon="4.5379">
        <ele>169.8</ele>
        <time>2022-09-22T12:57:37Z</time>
      </trkpt>
      <trkpt lat="50.35131" lon="4.5414">
        <ele>173.8</ele>
        <time>2022-09-22T12:58:27Z</time>
      </trkpt>
      <trkpt lat="50.35112" lon="4.54222">
        <ele>174.8</ele>
        <time>2022-09-22T12:58:39Z</time>
      </trkpt>
      <trkpt lat="50.35099" lon="4.54266">
        <ele>175.2</ele>
        <time>2022-09-22T12:58:46Z</time>
      </trkpt>
      <trkpt lat="50.3508" lon="4.54318">
        <ele>176.4</ele>
        <time>2022-09-22T12:58:54Z</time>
      </trkpt>
      <trkpt lat="50.35066" lon="4.54348">
        <ele>177.2</ele>
        <time>2022-09-22T12:58:59Z</time>
      </trkpt>
      <trkpt lat="50.35041" lon="4.54396">
        <ele>178.2</ele>
        <time>2022-09-22T12:59:08Z</time>
      </trkpt>
      <trkpt lat="50.35016" lon="4.54435">
        <ele>179.2</ele>
        <time>2022-09-22T12:59:16Z</time>
      </trkpt>
      <trkpt lat="50.34998" lon="4.54466">
        <ele>180</ele>
        <time>2022-09-22T12:59:22Z</time>
      </trkpt>
      <trkpt lat="50.34984" lon="4.54502">
        <ele>180.6</ele>
        <time>2022-09-22T12:59:28Z</time>
      </trkpt>
      <trkpt lat="50.34966" lon="4.54577">
        <ele>180.6</ele>
        <time>2022-09-22T12:59:40Z</time>
      </trkpt>
      <trkpt lat="50.34953" lon="4.54601">
        <ele>181</ele>
        <time>2022-09-22T12:59:45Z</time>
      </trkpt>
      <trkpt lat="50.34947" lon="4.5461">
        <ele>181.4</ele>
        <time>2022-09-22T12:59:49Z</time>
      </trkpt>
      <trkpt lat="50.34936" lon="4.54637">
        <ele>183.8</ele>
        <time>2022-09-22T13:00:35Z</time>
      </trkpt>
      <trkpt lat="50.34922" lon="4.54715">
        <ele>185</ele>
        <time>2022-09-22T13:00:50Z</time>
      </trkpt>
      <trkpt lat="50.34903" lon="4.54842">
        <ele>187.2</ele>
        <time>2022-09-22T13:01:12Z</time>
      </trkpt>
      <trkpt lat="50.34906" lon="4.54868">
        <ele>187.4</ele>
        <time>2022-09-22T13:01:16Z</time>
      </trkpt>
      <trkpt lat="50.34915" lon="4.54889">
        <ele>187.8</ele>
        <time>2022-09-22T13:01:20Z</time>
      </trkpt>
      <trkpt lat="50.34933" lon="4.54923">
        <ele>188.2</ele>
        <time>2022-09-22T13:01:27Z</time>
      </trkpt>
      <trkpt lat="50.34944" lon="4.54953">
        <ele>188.4</ele>
        <time>2022-09-22T13:01:33Z</time>
      </trkpt>
      <trkpt lat="50.34953" lon="4.54982">
        <ele>188.6</ele>
        <time>2022-09-22T13:01:38Z</time>
      </trkpt>
      <trkpt lat="50.34959" lon="4.55011">
        <ele>188.8</ele>
        <time>2022-09-22T13:01:43Z</time>
      </trkpt>
      <trkpt lat="50.34969" lon="4.55022">
        <ele>189</ele>
        <time>2022-09-22T13:01:46Z</time>
      </trkpt>
      <trkpt lat="50.34991" lon="4.55027">
        <ele>189.2</ele>
        <time>2022-09-22T13:01:51Z</time>
      </trkpt>
      <trkpt lat="50.35027" lon="4.55031">
        <ele>189.4</ele>
        <time>2022-09-22T13:01:59Z</time>
      </trkpt>
      <trkpt lat="50.35061" lon="4.55033">
        <ele>189.4</ele>
        <time>2022-09-22T13:02:07Z</time>
      </trkpt>
      <trkpt lat="50.35075" lon="4.55027">
        <ele>189.6</ele>
        <time>2022-09-22T13:02:11Z</time>
      </trkpt>
      <trkpt lat="50.3508" lon="4.55039">
        <ele>189.2</ele>
        <time>2022-09-22T13:02:14Z</time>
      </trkpt>
      <trkpt lat="50.35093" lon="4.55095">
        <ele>188.4</ele>
        <time>2022-09-22T13:02:23Z</time>
      </trkpt>
      <trkpt lat="50.35098" lon="4.55108">
        <ele>188.2</ele>
        <time>2022-09-22T13:02:25Z</time>
      </trkpt>
      <trkpt lat="50.35106" lon="4.55119">
        <ele>188.2</ele>
        <time>2022-09-22T13:02:27Z</time>
      </trkpt>
      <trkpt lat="50.35124" lon="4.55134">
        <ele>188</ele>
        <time>2022-09-22T13:02:31Z</time>
      </trkpt>
      <trkpt lat="50.35171" lon="4.55163">
        <ele>187.6</ele>
        <time>2022-09-22T13:02:42Z</time>
      </trkpt>
      <trkpt lat="50.35191" lon="4.55172">
        <ele>187.4</ele>
        <time>2022-09-22T13:02:47Z</time>
      </trkpt>
      <trkpt lat="50.3524" lon="4.55182">
        <ele>187.4</ele>
        <time>2022-09-22T13:02:59Z</time>
      </trkpt>
      <trkpt lat="50.35296" lon="4.55206">
        <ele>188.6</ele>
        <time>2022-09-22T13:03:14Z</time>
      </trkpt>
      <trkpt lat="50.35349" lon="4.55218">
        <ele>189.8</ele>
        <time>2022-09-22T13:03:30Z</time>
      </trkpt>
      <trkpt lat="50.3541" lon="4.55226">
        <ele>191.4</ele>
        <time>2022-09-22T13:03:45Z</time>
      </trkpt>
      <trkpt lat="50.35444" lon="4.55236">
        <ele>192.6</ele>
        <time>2022-09-22T13:03:54Z</time>
      </trkpt>
      <trkpt lat="50.3547" lon="4.55246">
        <ele>193</ele>
        <time>2022-09-22T13:04:01Z</time>
      </trkpt>
      <trkpt lat="50.3548" lon="4.55256">
        <ele>193.2</ele>
        <time>2022-09-22T13:04:04Z</time>
      </trkpt>
      <trkpt lat="50.35486" lon="4.55266">
        <ele>193.4</ele>
        <time>2022-09-22T13:04:06Z</time>
      </trkpt>
      <trkpt lat="50.35505" lon="4.55307">
        <ele>194</ele>
        <time>2022-09-22T13:04:14Z</time>
      </trkpt>
      <trkpt lat="50.35587" lon="4.55468">
        <ele>196.6</ele>
        <time>2022-09-22T13:04:47Z</time>
      </trkpt>
      <trkpt lat="50.35612" lon="4.55508">
        <ele>197.6</ele>
        <time>2022-09-22T13:04:55Z</time>
      </trkpt>
      <trkpt lat="50.35632" lon="4.55531">
        <ele>198</ele>
        <time>2022-09-22T13:05:01Z</time>
      </trkpt>
      <trkpt lat="50.35657" lon="4.55557">
        <ele>198.6</ele>
        <time>2022-09-22T13:05:08Z</time>
      </trkpt>
      <trkpt lat="50.35684" lon="4.55582">
        <ele>199</ele>
        <time>2022-09-22T13:05:15Z</time>
      </trkpt>
      <trkpt lat="50.35688" lon="4.55583">
        <ele>199.2</ele>
        <time>2022-09-22T13:05:16Z</time>
      </trkpt>
      <trkpt lat="50.35702" lon="4.55581">
        <ele>199.2</ele>
        <time>2022-09-22T13:05:19Z</time>
      </trkpt>
      <trkpt lat="50.3572" lon="4.55567">
        <ele>199.4</ele>
        <time>2022-09-22T13:05:23Z</time>
      </trkpt>
      <trkpt lat="50.35739" lon="4.55549">
        <ele>199.6</ele>
        <time>2022-09-22T13:05:27Z</time>
      </trkpt>
      <trkpt lat="50.35787" lon="4.55489">
        <ele>199.8</ele>
        <time>2022-09-22T13:05:38Z</time>
      </trkpt>
      <trkpt lat="50.35849" lon="4.55436">
        <ele>201</ele>
        <time>2022-09-22T13:05:52Z</time>
      </trkpt>
      <trkpt lat="50.35874" lon="4.55408">
        <ele>201.8</ele>
        <time>2022-09-22T13:05:59Z</time>
      </trkpt>
      <trkpt lat="50.35886" lon="4.5539">
        <ele>202.2</ele>
        <time>2022-09-22T13:06:03Z</time>
      </trkpt>
      <trkpt lat="50.35887" lon="4.55384">
        <ele>202.4</ele>
        <time>2022-09-22T13:06:04Z</time>
      </trkpt>
      <trkpt lat="50.35886" lon="4.55379">
        <ele>202.4</ele>
        <time>2022-09-22T13:06:05Z</time>
      </trkpt>
      <trkpt lat="50.3588" lon="4.55369">
        <ele>202.6</ele>
        <time>2022-09-22T13:06:07Z</time>
      </trkpt>
      <trkpt lat="50.35809" lon="4.55301">
        <ele>203.4</ele>
        <time>2022-09-22T13:06:22Z</time>
      </trkpt>
      <trkpt lat="50.35786" lon="4.55277">
        <ele>203.4</ele>
        <time>2022-09-22T13:06:28Z</time>
      </trkpt>
      <trkpt lat="50.35781" lon="4.55273">
        <ele>203.4</ele>
        <time>2022-09-22T13:06:29Z</time>
      </trkpt>
      <trkpt lat="50.35773" lon="4.55264">
        <ele>203.2</ele>
        <time>2022-09-22T13:06:31Z</time>
      </trkpt>
      <trkpt lat="50.35767" lon="4.5525">
        <ele>203.2</ele>
        <time>2022-09-22T13:06:33Z</time>
      </trkpt>
      <trkpt lat="50.35763" lon="4.55234">
        <ele>203.2</ele>
        <time>2022-09-22T13:06:35Z</time>
      </trkpt>
      <trkpt lat="50.35762" lon="4.55216">
        <ele>203.2</ele>
        <time>2022-09-22T13:06:37Z</time>
      </trkpt>
      <trkpt lat="50.35768" lon="4.55147">
        <ele>203.4</ele>
        <time>2022-09-22T13:06:49Z</time>
      </trkpt>
      <trkpt lat="50.35765" lon="4.55126">
        <ele>203.4</ele>
        <time>2022-09-22T13:06:52Z</time>
      </trkpt>
      <trkpt lat="50.35767" lon="4.55037">
        <ele>202.8</ele>
        <time>2022-09-22T13:07:02Z</time>
      </trkpt>
      <trkpt lat="50.35764" lon="4.5477">
        <ele>200.2</ele>
        <time>2022-09-22T13:07:26Z</time>
      </trkpt>
      <trkpt lat="50.35765" lon="4.54694">
        <ele>199.6</ele>
        <time>2022-09-22T13:07:33Z</time>
      </trkpt>
      <trkpt lat="50.35769" lon="4.54603">
        <ele>198.6</ele>
        <time>2022-09-22T13:07:41Z</time>
      </trkpt>
      <trkpt lat="50.35772" lon="4.5449">
        <ele>197.4</ele>
        <time>2022-09-22T13:07:51Z</time>
      </trkpt>
      <trkpt lat="50.35778" lon="4.54387">
        <ele>196</ele>
        <time>2022-09-22T13:08:00Z</time>
      </trkpt>
      <trkpt lat="50.35782" lon="4.54292">
        <ele>194.4</ele>
        <time>2022-09-22T13:08:08Z</time>
      </trkpt>
      <trkpt lat="50.35791" lon="4.54131">
        <ele>191.8</ele>
        <time>2022-09-22T13:08:21Z</time>
      </trkpt>
      <trkpt lat="50.35797" lon="4.54045">
        <ele>190</ele>
        <time>2022-09-22T13:08:27Z</time>
      </trkpt>
      <trkpt lat="50.35821" lon="4.53827">
        <ele>185.6</ele>
        <time>2022-09-22T13:08:40Z</time>
      </trkpt>
      <trkpt lat="50.35832" lon="4.53743">
        <ele>183.2</ele>
        <time>2022-09-22T13:08:45Z</time>
      </trkpt>
      <trkpt lat="50.35851" lon="4.53625">
        <ele>179.4</ele>
        <time>2022-09-22T13:08:52Z</time>
      </trkpt>
      <trkpt lat="50.35866" lon="4.53549">
        <ele>176.8</ele>
        <time>2022-09-22T13:08:57Z</time>
      </trkpt>
      <trkpt lat="50.35867" lon="4.53535">
        <ele>176.4</ele>
        <time>2022-09-22T13:08:58Z</time>
      </trkpt>
      <trkpt lat="50.35871" lon="4.5351">
        <ele>175.4</ele>
        <time>2022-09-22T13:09:00Z</time>
      </trkpt>
      <trkpt lat="50.3588" lon="4.53493">
        <ele>175</ele>
        <time>2022-09-22T13:09:02Z</time>
      </trkpt>
      <trkpt lat="50.35916" lon="4.5348">
        <ele>173.4</ele>
        <time>2022-09-22T13:09:07Z</time>
      </trkpt>
      <trkpt lat="50.35946" lon="4.53472">
        <ele>172</ele>
        <time>2022-09-22T13:09:11Z</time>
      </trkpt>
      <trkpt lat="50.3598" lon="4.53466">
        <ele>170.4</ele>
        <time>2022-09-22T13:09:16Z</time>
      </trkpt>
      <trkpt lat="50.36008" lon="4.53451">
        <ele>168.8</ele>
        <time>2022-09-22T13:09:21Z</time>
      </trkpt>
      <trkpt lat="50.36062" lon="4.53452">
        <ele>166.4</ele>
        <time>2022-09-22T13:09:32Z</time>
      </trkpt>
      <trkpt lat="50.36063" lon="4.53451">
        <ele>165.6</ele>
        <time>2022-09-22T13:09:36Z</time>
      </trkpt>
      <trkpt lat="50.36091" lon="4.53445">
        <ele>153.2</ele>
        <time>2022-09-22T13:12:11Z</time>
      </trkpt>
      <trkpt lat="50.36107" lon="4.53443">
        <ele>152.4</ele>
        <time>2022-09-22T13:12:16Z</time>
      </trkpt>
      <trkpt lat="50.36141" lon="4.53444">
        <ele>150.6</ele>
        <time>2022-09-22T13:12:27Z</time>
      </trkpt>
      <trkpt lat="50.36157" lon="4.53443">
        <ele>149.8</ele>
        <time>2022-09-22T13:12:31Z</time>
      </trkpt>
      <trkpt lat="50.36167" lon="4.53444">
        <ele>149.4</ele>
        <time>2022-09-22T13:12:33Z</time>
      </trkpt>
      <trkpt lat="50.36203" lon="4.53441">
        <ele>148.4</ele>
        <time>2022-09-22T13:12:41Z</time>
      </trkpt>
      <trkpt lat="50.36248" lon="4.5343">
        <ele>148.2</ele>
        <time>2022-09-22T13:12:50Z</time>
      </trkpt>
      <trkpt lat="50.36285" lon="4.53416">
        <ele>148.2</ele>
        <time>2022-09-22T13:12:57Z</time>
      </trkpt>
      <trkpt lat="50.36328" lon="4.5339">
        <ele>148.2</ele>
        <time>2022-09-22T13:13:05Z</time>
      </trkpt>
      <trkpt lat="50.36377" lon="4.53355">
        <ele>148.4</ele>
        <time>2022-09-22T13:13:14Z</time>
      </trkpt>
      <trkpt lat="50.3643" lon="4.53309">
        <ele>148.6</ele>
        <time>2022-09-22T13:13:24Z</time>
      </trkpt>
      <trkpt lat="50.36466" lon="4.53272">
        <ele>148.8</ele>
        <time>2022-09-22T13:13:31Z</time>
      </trkpt>
      <trkpt lat="50.36557" lon="4.53166">
        <ele>148.8</ele>
        <time>2022-09-22T13:13:49Z</time>
      </trkpt>
      <trkpt lat="50.36656" lon="4.53056">
        <ele>149.2</ele>
        <time>2022-09-22T13:14:09Z</time>
      </trkpt>
      <trkpt lat="50.36692" lon="4.53024">
        <ele>149.4</ele>
        <time>2022-09-22T13:14:16Z</time>
      </trkpt>
      <trkpt lat="50.36744" lon="4.52988">
        <ele>149.6</ele>
        <time>2022-09-22T13:14:25Z</time>
      </trkpt>
      <trkpt lat="50.36793" lon="4.52964">
        <ele>149.6</ele>
        <time>2022-09-22T13:14:33Z</time>
      </trkpt>
      <trkpt lat="50.36835" lon="4.52939">
        <ele>149.6</ele>
        <time>2022-09-22T13:14:40Z</time>
      </trkpt>
      <trkpt lat="50.36867" lon="4.52907">
        <ele>149.4</ele>
        <time>2022-09-22T13:14:46Z</time>
      </trkpt>
      <trkpt lat="50.369" lon="4.52859">
        <ele>149.2</ele>
        <time>2022-09-22T13:14:53Z</time>
      </trkpt>
      <trkpt lat="50.36928" lon="4.52807">
        <ele>148.8</ele>
        <time>2022-09-22T13:15:00Z</time>
      </trkpt>
      <trkpt lat="50.36958" lon="4.52741">
        <ele>148.2</ele>
        <time>2022-09-22T13:15:08Z</time>
      </trkpt>
      <trkpt lat="50.36989" lon="4.52677">
        <ele>147.8</ele>
        <time>2022-09-22T13:15:16Z</time>
      </trkpt>
      <trkpt lat="50.3702" lon="4.52602">
        <ele>147</ele>
        <time>2022-09-22T13:15:25Z</time>
      </trkpt>
      <trkpt lat="50.37051" lon="4.52539">
        <ele>146.2</ele>
        <time>2022-09-22T13:15:33Z</time>
      </trkpt>
      <trkpt lat="50.3708" lon="4.52495">
        <ele>145.4</ele>
        <time>2022-09-22T13:15:41Z</time>
      </trkpt>
      <trkpt lat="50.37081" lon="4.5249">
        <ele>145.2</ele>
        <time>2022-09-22T13:15:42Z</time>
      </trkpt>
      <trkpt lat="50.37068" lon="4.52463">
        <ele>144.6</ele>
        <time>2022-09-22T13:15:54Z</time>
      </trkpt>
      <trkpt lat="50.37068" lon="4.52461">
        <ele>144.4</ele>
        <time>2022-09-22T13:15:59Z</time>
      </trkpt>
      <trkpt lat="50.37066" lon="4.52458">
        <ele>144.2</ele>
        <time>2022-09-22T13:16:03Z</time>
      </trkpt>
      <trkpt lat="50.37066" lon="4.52445">
        <ele>144</ele>
        <time>2022-09-22T13:16:08Z</time>
      </trkpt>
      <trkpt lat="50.37067" lon="4.5244">
        <ele>143.8</ele>
        <time>2022-09-22T13:16:10Z</time>
      </trkpt>
      <trkpt lat="50.37083" lon="4.52412">
        <ele>143.6</ele>
        <time>2022-09-22T13:16:21Z</time>
      </trkpt>
      <trkpt lat="50.37085" lon="4.52395">
        <ele>143.6</ele>
        <time>2022-09-22T13:16:25Z</time>
      </trkpt>
      <trkpt lat="50.37083" lon="4.52391">
        <ele>143.6</ele>
        <time>2022-09-22T13:16:26Z</time>
      </trkpt>
      <trkpt lat="50.37037" lon="4.52349">
        <ele>143.4</ele>
        <time>2022-09-22T13:16:40Z</time>
      </trkpt>
      <trkpt lat="50.37022" lon="4.52327">
        <ele>143.6</ele>
        <time>2022-09-22T13:16:46Z</time>
      </trkpt>
      <trkpt lat="50.37013" lon="4.52306">
        <ele>144</ele>
        <time>2022-09-22T13:16:51Z</time>
      </trkpt>
      <trkpt lat="50.36999" lon="4.52252">
        <ele>145.4</ele>
        <time>2022-09-22T13:17:03Z</time>
      </trkpt>
      <trkpt lat="50.36994" lon="4.52222">
        <ele>146</ele>
        <time>2022-09-22T13:17:09Z</time>
      </trkpt>
      <trkpt lat="50.36994" lon="4.52186">
        <ele>146.2</ele>
        <time>2022-09-22T13:17:14Z</time>
      </trkpt>
      <trkpt lat="50.36989" lon="4.52145">
        <ele>146.4</ele>
        <time>2022-09-22T13:17:21Z</time>
      </trkpt>
      <trkpt lat="50.36987" lon="4.52115">
        <ele>146.8</ele>
        <time>2022-09-22T13:17:27Z</time>
      </trkpt>
      <trkpt lat="50.36996" lon="4.52079">
        <ele>147.6</ele>
        <time>2022-09-22T13:17:39Z</time>
      </trkpt>
      <trkpt lat="50.37" lon="4.52068">
        <ele>152.4</ele>
        <time>2022-09-22T13:19:07Z</time>
      </trkpt>
      <trkpt lat="50.36999" lon="4.52066">
        <ele>154.8</ele>
        <time>2022-09-22T13:20:33Z</time>
      </trkpt>
      <trkpt lat="50.36999" lon="4.52067">
        <ele>155.6</ele>
        <time>2022-09-22T13:21:19Z</time>
      </trkpt>
      <trkpt lat="50.37001" lon="4.52063">
        <ele>157.8</ele>
        <time>2022-09-22T13:24:40Z</time>
      </trkpt>
      <trkpt lat="50.37029" lon="4.51963">
        <ele>159.2</ele>
        <time>2022-09-22T13:24:59Z</time>
      </trkpt>
      <trkpt lat="50.3704" lon="4.51918">
        <ele>160</ele>
        <time>2022-09-22T13:25:06Z</time>
      </trkpt>
      <trkpt lat="50.3705" lon="4.51888">
        <ele>160.6</ele>
        <time>2022-09-22T13:25:11Z</time>
      </trkpt>
      <trkpt lat="50.37062" lon="4.51845">
        <ele>161.6</ele>
        <time>2022-09-22T13:25:18Z</time>
      </trkpt>
      <trkpt lat="50.37092" lon="4.51756">
        <ele>165.2</ele>
        <time>2022-09-22T13:25:33Z</time>
      </trkpt>
      <trkpt lat="50.371" lon="4.51711">
        <ele>167.4</ele>
        <time>2022-09-22T13:25:40Z</time>
      </trkpt>
      <trkpt lat="50.371" lon="4.5169">
        <ele>168.6</ele>
        <time>2022-09-22T13:25:43Z</time>
      </trkpt>
      <trkpt lat="50.37102" lon="4.51669">
        <ele>170</ele>
        <time>2022-09-22T13:25:46Z</time>
      </trkpt>
      <trkpt lat="50.37102" lon="4.51637">
        <ele>171.6</ele>
        <time>2022-09-22T13:25:50Z</time>
      </trkpt>
      <trkpt lat="50.37099" lon="4.51593">
        <ele>174.2</ele>
        <time>2022-09-22T13:25:56Z</time>
      </trkpt>
      <trkpt lat="50.371" lon="4.5156">
        <ele>183</ele>
        <time>2022-09-22T13:26:24Z</time>
      </trkpt>
      <trkpt lat="50.37101" lon="4.51557">
        <ele>185.8</ele>
        <time>2022-09-22T13:26:34Z</time>
      </trkpt>
      <trkpt lat="50.37096" lon="4.51482">
        <ele>188.4</ele>
        <time>2022-09-22T13:26:50Z</time>
      </trkpt>
      <trkpt lat="50.37093" lon="4.51455">
        <ele>189.2</ele>
        <time>2022-09-22T13:26:56Z</time>
      </trkpt>
      <trkpt lat="50.37093" lon="4.51437">
        <ele>190.2</ele>
        <time>2022-09-22T13:27:01Z</time>
      </trkpt>
      <trkpt lat="50.37083" lon="4.5138">
        <ele>193.8</ele>
        <time>2022-09-22T13:27:16Z</time>
      </trkpt>
      <trkpt lat="50.37082" lon="4.51379">
        <ele>195</ele>
        <time>2022-09-22T13:27:22Z</time>
      </trkpt>
      <trkpt lat="50.3708" lon="4.51354">
        <ele>203.4</ele>
        <time>2022-09-22T13:28:23Z</time>
      </trkpt>
      <trkpt lat="50.37082" lon="4.51338">
        <ele>203.8</ele>
        <time>2022-09-22T13:28:26Z</time>
      </trkpt>
      <trkpt lat="50.37079" lon="4.51276">
        <ele>205.4</ele>
        <time>2022-09-22T13:28:37Z</time>
      </trkpt>
      <trkpt lat="50.37079" lon="4.51246">
        <ele>206.2</ele>
        <time>2022-09-22T13:28:42Z</time>
      </trkpt>
      <trkpt lat="50.37072" lon="4.5112">
        <ele>207.4</ele>
        <time>2022-09-22T13:29:02Z</time>
      </trkpt>
      <trkpt lat="50.37072" lon="4.51099">
        <ele>207.2</ele>
        <time>2022-09-22T13:29:06Z</time>
      </trkpt>
      <trkpt lat="50.37076" lon="4.51087">
        <ele>207.4</ele>
        <time>2022-09-22T13:29:09Z</time>
      </trkpt>
      <trkpt lat="50.37079" lon="4.51092">
        <ele>207.6</ele>
        <time>2022-09-22T13:29:13Z</time>
      </trkpt>
      <trkpt lat="50.37079" lon="4.51083">
        <ele>209.6</ele>
        <time>2022-09-22T13:29:36Z</time>
      </trkpt>
      <trkpt lat="50.37081" lon="4.51075">
        <ele>210.6</ele>
        <time>2022-09-22T13:29:43Z</time>
      </trkpt>
      <trkpt lat="50.37085" lon="4.51071">
        <ele>210.6</ele>
        <time>2022-09-22T13:29:46Z</time>
      </trkpt>
      <trkpt lat="50.37097" lon="4.51054">
        <ele>211.2</ele>
        <time>2022-09-22T13:29:52Z</time>
      </trkpt>
      <trkpt lat="50.3711" lon="4.51039">
        <ele>211.6</ele>
        <time>2022-09-22T13:29:57Z</time>
      </trkpt>
      <trkpt lat="50.37124" lon="4.51028">
        <ele>211.2</ele>
        <time>2022-09-22T13:30:02Z</time>
      </trkpt>
      <trkpt lat="50.37139" lon="4.51012">
        <ele>210.8</ele>
        <time>2022-09-22T13:30:08Z</time>
      </trkpt>
      <trkpt lat="50.37165" lon="4.50977">
        <ele>208.8</ele>
        <time>2022-09-22T13:30:52Z</time>
      </trkpt>
      <trkpt lat="50.37224" lon="4.50905">
        <ele>207</ele>
        <time>2022-09-22T13:31:21Z</time>
      </trkpt>
      <trkpt lat="50.37271" lon="4.50842">
        <ele>205.8</ele>
        <time>2022-09-22T13:31:45Z</time>
      </trkpt>
      <trkpt lat="50.37274" lon="4.5084">
        <ele>205.8</ele>
        <time>2022-09-22T13:31:46Z</time>
      </trkpt>
      <trkpt lat="50.37335" lon="4.50761">
        <ele>202</ele>
        <time>2022-09-22T13:32:36Z</time>
      </trkpt>
      <trkpt lat="50.37337" lon="4.5076">
        <ele>201.6</ele>
        <time>2022-09-22T13:32:50Z</time>
      </trkpt>
      <trkpt lat="50.37337" lon="4.50759">
        <ele>201.8</ele>
        <time>2022-09-22T13:32:56Z</time>
      </trkpt>
      <trkpt lat="50.37342" lon="4.50756">
        <ele>202.6</ele>
        <time>2022-09-22T13:33:08Z</time>
      </trkpt>
      <trkpt lat="50.37346" lon="4.5075">
        <ele>202.4</ele>
        <time>2022-09-22T13:33:15Z</time>
      </trkpt>
      <trkpt lat="50.37369" lon="4.50724">
        <ele>202.8</ele>
        <time>2022-09-22T13:33:25Z</time>
      </trkpt>
      <trkpt lat="50.37379" lon="4.50708">
        <ele>201.8</ele>
        <time>2022-09-22T13:33:30Z</time>
      </trkpt>
      <trkpt lat="50.37415" lon="4.50664">
        <ele>200.2</ele>
        <time>2022-09-22T13:33:44Z</time>
      </trkpt>
      <trkpt lat="50.37426" lon="4.50659">
        <ele>199.6</ele>
        <time>2022-09-22T13:33:49Z</time>
      </trkpt>
      <trkpt lat="50.37438" lon="4.5066">
        <ele>199.2</ele>
        <time>2022-09-22T13:33:53Z</time>
      </trkpt>
      <trkpt lat="50.37497" lon="4.50685">
        <ele>197.4</ele>
        <time>2022-09-22T13:34:03Z</time>
      </trkpt>
      <trkpt lat="50.37516" lon="4.50695">
        <ele>196</ele>
        <time>2022-09-22T13:34:09Z</time>
      </trkpt>
      <trkpt lat="50.37519" lon="4.5069">
        <ele>195.8</ele>
        <time>2022-09-22T13:34:11Z</time>
      </trkpt>
      <trkpt lat="50.37526" lon="4.50642">
        <ele>194.6</ele>
        <time>2022-09-22T13:34:22Z</time>
      </trkpt>
      <trkpt lat="50.37529" lon="4.50588">
        <ele>194.2</ele>
        <time>2022-09-22T13:34:35Z</time>
      </trkpt>
      <trkpt lat="50.37532" lon="4.50579">
        <ele>194.2</ele>
        <time>2022-09-22T13:34:37Z</time>
      </trkpt>
      <trkpt lat="50.37537" lon="4.50554">
        <ele>194.4</ele>
        <time>2022-09-22T13:34:42Z</time>
      </trkpt>
      <trkpt lat="50.37544" lon="4.50528">
        <ele>194.8</ele>
        <time>2022-09-22T13:34:48Z</time>
      </trkpt>
      <trkpt lat="50.37554" lon="4.505">
        <ele>194.4</ele>
        <time>2022-09-22T13:34:53Z</time>
      </trkpt>
      <trkpt lat="50.37561" lon="4.50461">
        <ele>194</ele>
        <time>2022-09-22T13:35:00Z</time>
      </trkpt>
      <trkpt lat="50.37562" lon="4.50448">
        <ele>193.8</ele>
        <time>2022-09-22T13:35:02Z</time>
      </trkpt>
      <trkpt lat="50.37566" lon="4.50434">
        <ele>193.6</ele>
        <time>2022-09-22T13:35:04Z</time>
      </trkpt>
      <trkpt lat="50.37579" lon="4.50406">
        <ele>193</ele>
        <time>2022-09-22T13:35:09Z</time>
      </trkpt>
      <trkpt lat="50.37586" lon="4.50396">
        <ele>192.4</ele>
        <time>2022-09-22T13:35:16Z</time>
      </trkpt>
      <trkpt lat="50.37588" lon="4.50397">
        <ele>191.8</ele>
        <time>2022-09-22T13:35:21Z</time>
      </trkpt>
      <trkpt lat="50.3761" lon="4.50439">
        <ele>189.8</ele>
        <time>2022-09-22T13:35:32Z</time>
      </trkpt>
      <trkpt lat="50.37648" lon="4.5048">
        <ele>188</ele>
        <time>2022-09-22T13:35:44Z</time>
      </trkpt>
      <trkpt lat="50.37682" lon="4.50534">
        <ele>186</ele>
        <time>2022-09-22T13:35:59Z</time>
      </trkpt>
      <trkpt lat="50.37709" lon="4.50602">
        <ele>184.2</ele>
        <time>2022-09-22T13:36:13Z</time>
      </trkpt>
      <trkpt lat="50.37711" lon="4.50603">
        <ele>184.2</ele>
        <time>2022-09-22T13:36:14Z</time>
      </trkpt>
      <trkpt lat="50.37731" lon="4.50589">
        <ele>183.2</ele>
        <time>2022-09-22T13:36:20Z</time>
      </trkpt>
      <trkpt lat="50.37757" lon="4.50575">
        <ele>182.4</ele>
        <time>2022-09-22T13:36:25Z</time>
      </trkpt>
      <trkpt lat="50.3778" lon="4.50566">
        <ele>181.4</ele>
        <time>2022-09-22T13:36:30Z</time>
      </trkpt>
      <trkpt lat="50.37787" lon="4.50565">
        <ele>180.8</ele>
        <time>2022-09-22T13:36:33Z</time>
      </trkpt>
      <trkpt lat="50.37793" lon="4.5057">
        <ele>180</ele>
        <time>2022-09-22T13:36:36Z</time>
      </trkpt>
      <trkpt lat="50.37806" lon="4.50564">
        <ele>178.8</ele>
        <time>2022-09-22T13:36:43Z</time>
      </trkpt>
      <trkpt lat="50.37845" lon="4.50555">
        <ele>175</ele>
        <time>2022-09-22T13:36:57Z</time>
      </trkpt>
      <trkpt lat="50.3788" lon="4.50545">
        <ele>171.6</ele>
        <time>2022-09-22T13:37:09Z</time>
      </trkpt>
      <trkpt lat="50.37917" lon="4.50536">
        <ele>166.8</ele>
        <time>2022-09-22T13:37:28Z</time>
      </trkpt>
      <trkpt lat="50.37916" lon="4.5053">
        <ele>166</ele>
        <time>2022-09-22T13:37:33Z</time>
      </trkpt>
      <trkpt lat="50.37899" lon="4.5051">
        <ele>164.8</ele>
        <time>2022-09-22T13:37:41Z</time>
      </trkpt>
      <trkpt lat="50.37885" lon="4.50489">
        <ele>163.8</ele>
        <time>2022-09-22T13:37:47Z</time>
      </trkpt>
      <trkpt lat="50.37875" lon="4.50458">
        <ele>163.2</ele>
        <time>2022-09-22T13:37:55Z</time>
      </trkpt>
      <trkpt lat="50.37873" lon="4.50443">
        <ele>162.6</ele>
        <time>2022-09-22T13:38:00Z</time>
      </trkpt>
      <trkpt lat="50.37875" lon="4.50437">
        <ele>162.8</ele>
        <time>2022-09-22T13:38:02Z</time>
      </trkpt>
      <trkpt lat="50.37902" lon="4.50423">
        <ele>162.4</ele>
        <time>2022-09-22T13:38:10Z</time>
      </trkpt>
      <trkpt lat="50.37929" lon="4.50407">
        <ele>161.8</ele>
        <time>2022-09-22T13:38:15Z</time>
      </trkpt>
      <trkpt lat="50.37935" lon="4.50402">
        <ele>161.8</ele>
        <time>2022-09-22T13:38:16Z</time>
      </trkpt>
      <trkpt lat="50.37949" lon="4.50384">
        <ele>161.2</ele>
        <time>2022-09-22T13:38:19Z</time>
      </trkpt>
      <trkpt lat="50.37972" lon="4.50351">
        <ele>160.4</ele>
        <time>2022-09-22T13:38:25Z</time>
      </trkpt>
      <trkpt lat="50.37985" lon="4.50326">
        <ele>160</ele>
        <time>2022-09-22T13:38:31Z</time>
      </trkpt>
      <trkpt lat="50.37996" lon="4.50297">
        <ele>160</ele>
        <time>2022-09-22T13:38:36Z</time>
      </trkpt>
      <trkpt lat="50.38011" lon="4.50244">
        <ele>160.6</ele>
        <time>2022-09-22T13:38:45Z</time>
      </trkpt>
      <trkpt lat="50.38025" lon="4.50201">
        <ele>161.4</ele>
        <time>2022-09-22T13:38:53Z</time>
      </trkpt>
      <trkpt lat="50.38035" lon="4.50177">
        <ele>162</ele>
        <time>2022-09-22T13:38:59Z</time>
      </trkpt>
      <trkpt lat="50.38069" lon="4.50134">
        <ele>163.8</ele>
        <time>2022-09-22T13:39:14Z</time>
      </trkpt>
      <trkpt lat="50.38092" lon="4.50102">
        <ele>165</ele>
        <time>2022-09-22T13:39:23Z</time>
      </trkpt>
      <trkpt lat="50.38137" lon="4.50045">
        <ele>167.6</ele>
        <time>2022-09-22T13:39:39Z</time>
      </trkpt>
      <trkpt lat="50.38163" lon="4.5001">
        <ele>169.2</ele>
        <time>2022-09-22T13:39:48Z</time>
      </trkpt>
      <trkpt lat="50.38187" lon="4.49982">
        <ele>170.8</ele>
        <time>2022-09-22T13:39:56Z</time>
      </trkpt>
      <trkpt lat="50.38202" lon="4.49977">
        <ele>171.6</ele>
        <time>2022-09-22T13:40:01Z</time>
      </trkpt>
      <trkpt lat="50.38188" lon="4.49929">
        <ele>182.6</ele>
        <time>2022-09-22T13:41:44Z</time>
      </trkpt>
      <trkpt lat="50.38129" lon="4.49754">
        <ele>183.8</ele>
        <time>2022-09-22T13:42:11Z</time>
      </trkpt>
      <trkpt lat="50.38117" lon="4.49724">
        <ele>184.2</ele>
        <time>2022-09-22T13:42:17Z</time>
      </trkpt>
      <trkpt lat="50.38098" lon="4.49689">
        <ele>184.6</ele>
        <time>2022-09-22T13:42:24Z</time>
      </trkpt>
      <trkpt lat="50.3807" lon="4.49646">
        <ele>185</ele>
        <time>2022-09-22T13:42:33Z</time>
      </trkpt>
      <trkpt lat="50.38029" lon="4.49592">
        <ele>185.2</ele>
        <time>2022-09-22T13:42:45Z</time>
      </trkpt>
      <trkpt lat="50.37977" lon="4.49532">
        <ele>185.4</ele>
        <time>2022-09-22T13:42:59Z</time>
      </trkpt>
      <trkpt lat="50.37922" lon="4.49427">
        <ele>185.2</ele>
        <time>2022-09-22T13:43:17Z</time>
      </trkpt>
      <trkpt lat="50.37904" lon="4.49395">
        <ele>185</ele>
        <time>2022-09-22T13:43:24Z</time>
      </trkpt>
      <trkpt lat="50.37887" lon="4.49381">
        <ele>184.6</ele>
        <time>2022-09-22T13:43:32Z</time>
      </trkpt>
      <trkpt lat="50.37873" lon="4.49359">
        <ele>184.2</ele>
        <time>2022-09-22T13:43:39Z</time>
      </trkpt>
      <trkpt lat="50.37856" lon="4.49349">
        <ele>183.6</ele>
        <time>2022-09-22T13:43:44Z</time>
      </trkpt>
      <trkpt lat="50.37846" lon="4.4934">
        <ele>183</ele>
        <time>2022-09-22T13:43:47Z</time>
      </trkpt>
      <trkpt lat="50.37828" lon="4.49303">
        <ele>181.2</ele>
        <time>2022-09-22T13:43:55Z</time>
      </trkpt>
      <trkpt lat="50.37788" lon="4.49212">
        <ele>178.6</ele>
        <time>2022-09-22T13:44:13Z</time>
      </trkpt>
      <trkpt lat="50.37751" lon="4.49136">
        <ele>177.2</ele>
        <time>2022-09-22T13:44:30Z</time>
      </trkpt>
      <trkpt lat="50.37706" lon="4.49032">
        <ele>176</ele>
        <time>2022-09-22T13:44:51Z</time>
      </trkpt>
      <trkpt lat="50.37691" lon="4.49004">
        <ele>175.6</ele>
        <time>2022-09-22T13:44:57Z</time>
      </trkpt>
      <trkpt lat="50.3766" lon="4.48932">
        <ele>185</ele>
        <time>2022-09-22T13:45:30Z</time>
      </trkpt>
      <trkpt lat="50.37641" lon="4.48958">
        <ele>174.2</ele>
        <time>2022-09-22T13:45:34Z</time>
      </trkpt>
      <trkpt lat="50.37543" lon="4.49185">
        <ele>173.8</ele>
        <time>2022-09-22T13:46:00Z</time>
      </trkpt>
      <trkpt lat="50.37501" lon="4.49263">
        <ele>174.4</ele>
        <time>2022-09-22T13:46:17Z</time>
      </trkpt>
      <trkpt lat="50.37496" lon="4.49275">
        <ele>174.6</ele>
        <time>2022-09-22T13:46:23Z</time>
      </trkpt>
      <trkpt lat="50.37493" lon="4.49274">
        <ele>174.8</ele>
        <time>2022-09-22T13:46:25Z</time>
      </trkpt>
      <trkpt lat="50.37485" lon="4.49263">
        <ele>175</ele>
        <time>2022-09-22T13:46:30Z</time>
      </trkpt>
      <trkpt lat="50.37463" lon="4.49246">
        <ele>175</ele>
        <time>2022-09-22T13:46:41Z</time>
      </trkpt>
      <trkpt lat="50.37453" lon="4.49233">
        <ele>174.6</ele>
        <time>2022-09-22T13:46:46Z</time>
      </trkpt>
      <trkpt lat="50.37442" lon="4.49203">
        <ele>173.8</ele>
        <time>2022-09-22T13:46:55Z</time>
      </trkpt>
      <trkpt lat="50.37428" lon="4.49171">
        <ele>172.8</ele>
        <time>2022-09-22T13:47:04Z</time>
      </trkpt>
      <trkpt lat="50.37422" lon="4.49146">
        <ele>172</ele>
        <time>2022-09-22T13:47:09Z</time>
      </trkpt>
      <trkpt lat="50.37417" lon="4.49133">
        <ele>171.4</ele>
        <time>2022-09-22T13:47:12Z</time>
      </trkpt>
      <trkpt lat="50.37412" lon="4.49124">
        <ele>171</ele>
        <time>2022-09-22T13:47:14Z</time>
      </trkpt>
      <trkpt lat="50.37399" lon="4.49106">
        <ele>170.4</ele>
        <time>2022-09-22T13:47:19Z</time>
      </trkpt>
      <trkpt lat="50.37381" lon="4.49071">
        <ele>169.4</ele>
        <time>2022-09-22T13:47:27Z</time>
      </trkpt>
      <trkpt lat="50.37369" lon="4.49031">
        <ele>169.6</ele>
        <time>2022-09-22T13:47:34Z</time>
      </trkpt>
      <trkpt lat="50.37365" lon="4.49022">
        <ele>169.6</ele>
        <time>2022-09-22T13:47:36Z</time>
      </trkpt>
      <trkpt lat="50.3735" lon="4.49">
        <ele>171</ele>
        <time>2022-09-22T13:47:41Z</time>
      </trkpt>
      <trkpt lat="50.37336" lon="4.48986">
        <ele>170.8</ele>
        <time>2022-09-22T13:47:46Z</time>
      </trkpt>
      <trkpt lat="50.37323" lon="4.48967">
        <ele>171.6</ele>
        <time>2022-09-22T13:47:51Z</time>
      </trkpt>
      <trkpt lat="50.37298" lon="4.48915">
        <ele>173.6</ele>
        <time>2022-09-22T13:48:03Z</time>
      </trkpt>
      <trkpt lat="50.37284" lon="4.48873">
        <ele>175.4</ele>
        <time>2022-09-22T13:48:13Z</time>
      </trkpt>
      <trkpt lat="50.3728" lon="4.48867">
        <ele>176</ele>
        <time>2022-09-22T13:48:15Z</time>
      </trkpt>
      <trkpt lat="50.37266" lon="4.48854">
        <ele>176.6</ele>
        <time>2022-09-22T13:48:21Z</time>
      </trkpt>
      <trkpt lat="50.37254" lon="4.48841">
        <ele>176.6</ele>
        <time>2022-09-22T13:48:27Z</time>
      </trkpt>
      <trkpt lat="50.37249" lon="4.48825">
        <ele>176.4</ele>
        <time>2022-09-22T13:48:31Z</time>
      </trkpt>
      <trkpt lat="50.37241" lon="4.48806">
        <ele>177</ele>
        <time>2022-09-22T13:48:36Z</time>
      </trkpt>
      <trkpt lat="50.3723" lon="4.48792">
        <ele>177</ele>
        <time>2022-09-22T13:48:41Z</time>
      </trkpt>
      <trkpt lat="50.37226" lon="4.48784">
        <ele>177</ele>
        <time>2022-09-22T13:48:43Z</time>
      </trkpt>
      <trkpt lat="50.37223" lon="4.48771">
        <ele>177</ele>
        <time>2022-09-22T13:48:49Z</time>
      </trkpt>
      <trkpt lat="50.3722" lon="4.48764">
        <ele>176.6</ele>
        <time>2022-09-22T13:49:02Z</time>
      </trkpt>
      <trkpt lat="50.37221" lon="4.48752">
        <ele>176.4</ele>
        <time>2022-09-22T13:49:12Z</time>
      </trkpt>
      <trkpt lat="50.37234" lon="4.48705">
        <ele>175.6</ele>
        <time>2022-09-22T13:49:26Z</time>
      </trkpt>
      <trkpt lat="50.37237" lon="4.48676">
        <ele>175.4</ele>
        <time>2022-09-22T13:49:32Z</time>
      </trkpt>
      <trkpt lat="50.37241" lon="4.48652">
        <ele>175.8</ele>
        <time>2022-09-22T13:49:37Z</time>
      </trkpt>
      <trkpt lat="50.3725" lon="4.4862">
        <ele>176.2</ele>
        <time>2022-09-22T13:49:44Z</time>
      </trkpt>
      <trkpt lat="50.37252" lon="4.48607">
        <ele>176.4</ele>
        <time>2022-09-22T13:49:47Z</time>
      </trkpt>
      <trkpt lat="50.37265" lon="4.48572">
        <ele>176.4</ele>
        <time>2022-09-22T13:49:56Z</time>
      </trkpt>
      <trkpt lat="50.37267" lon="4.48564">
        <ele>176.4</ele>
        <time>2022-09-22T13:49:58Z</time>
      </trkpt>
      <trkpt lat="50.37266" lon="4.4856">
        <ele>176.2</ele>
        <time>2022-09-22T13:49:59Z</time>
      </trkpt>
      <trkpt lat="50.37267" lon="4.48543">
        <ele>176.4</ele>
        <time>2022-09-22T13:50:04Z</time>
      </trkpt>
      <trkpt lat="50.37264" lon="4.4852">
        <ele>176.4</ele>
        <time>2022-09-22T13:50:11Z</time>
      </trkpt>
      <trkpt lat="50.37265" lon="4.48509">
        <ele>176.6</ele>
        <time>2022-09-22T13:50:14Z</time>
      </trkpt>
      <trkpt lat="50.37272" lon="4.48488">
        <ele>177</ele>
        <time>2022-09-22T13:50:20Z</time>
      </trkpt>
      <trkpt lat="50.37274" lon="4.48467">
        <ele>177.2</ele>
        <time>2022-09-22T13:50:25Z</time>
      </trkpt>
      <trkpt lat="50.37266" lon="4.4844">
        <ele>177.6</ele>
        <time>2022-09-22T13:50:31Z</time>
      </trkpt>
      <trkpt lat="50.37255" lon="4.48409">
        <ele>178.4</ele>
        <time>2022-09-22T13:50:38Z</time>
      </trkpt>
      <trkpt lat="50.37247" lon="4.4838">
        <ele>179.6</ele>
        <time>2022-09-22T13:50:44Z</time>
      </trkpt>
      <trkpt lat="50.37238" lon="4.48356">
        <ele>180.6</ele>
        <time>2022-09-22T13:50:49Z</time>
      </trkpt>
      <trkpt lat="50.37233" lon="4.48334">
        <ele>181.6</ele>
        <time>2022-09-22T13:50:54Z</time>
      </trkpt>
      <trkpt lat="50.37242" lon="4.48273">
        <ele>183.8</ele>
        <time>2022-09-22T13:51:07Z</time>
      </trkpt>
      <trkpt lat="50.37241" lon="4.48261">
        <ele>185.2</ele>
        <time>2022-09-22T13:51:15Z</time>
      </trkpt>
      <trkpt lat="50.37238" lon="4.48257">
        <ele>185.4</ele>
        <time>2022-09-22T13:51:17Z</time>
      </trkpt>
      <trkpt lat="50.37227" lon="4.48254">
        <ele>186</ele>
        <time>2022-09-22T13:51:26Z</time>
      </trkpt>
      <trkpt lat="50.37187" lon="4.48237">
        <ele>186.8</ele>
        <time>2022-09-22T13:51:36Z</time>
      </trkpt>
      <trkpt lat="50.37116" lon="4.48212">
        <ele>189.4</ele>
        <time>2022-09-22T13:51:58Z</time>
      </trkpt>
      <trkpt lat="50.37102" lon="4.48204">
        <ele>190</ele>
        <time>2022-09-22T13:52:03Z</time>
      </trkpt>
      <trkpt lat="50.37089" lon="4.482">
        <ele>190.4</ele>
        <time>2022-09-22T13:52:07Z</time>
      </trkpt>
      <trkpt lat="50.37055" lon="4.48186">
        <ele>191.6</ele>
        <time>2022-09-22T13:52:18Z</time>
      </trkpt>
      <trkpt lat="50.37021" lon="4.48168">
        <ele>192.4</ele>
        <time>2022-09-22T13:52:29Z</time>
      </trkpt>
      <trkpt lat="50.36977" lon="4.48141">
        <ele>193.4</ele>
        <time>2022-09-22T13:52:42Z</time>
      </trkpt>
      <trkpt lat="50.36928" lon="4.48104">
        <ele>195.2</ele>
        <time>2022-09-22T13:52:59Z</time>
      </trkpt>
      <trkpt lat="50.36894" lon="4.48081">
        <ele>196</ele>
        <time>2022-09-22T13:53:10Z</time>
      </trkpt>
      <trkpt lat="50.36886" lon="4.48059">
        <ele>197.6</ele>
        <time>2022-09-22T13:53:30Z</time>
      </trkpt>
      <trkpt lat="50.36968" lon="4.48002">
        <ele>199</ele>
        <time>2022-09-22T13:53:55Z</time>
      </trkpt>
      <trkpt lat="50.36976" lon="4.47995">
        <ele>199</ele>
        <time>2022-09-22T13:53:58Z</time>
      </trkpt>
      <trkpt lat="50.37022" lon="4.4791">
        <ele>198.2</ele>
        <time>2022-09-22T13:54:23Z</time>
      </trkpt>
      <trkpt lat="50.3705" lon="4.47864">
        <ele>195.4</ele>
        <time>2022-09-22T13:54:35Z</time>
      </trkpt>
      <trkpt lat="50.37068" lon="4.47838">
        <ele>192.8</ele>
        <time>2022-09-22T13:54:44Z</time>
      </trkpt>
      <trkpt lat="50.37113" lon="4.47756">
        <ele>188.8</ele>
        <time>2022-09-22T13:54:59Z</time>
      </trkpt>
      <trkpt lat="50.37134" lon="4.47722">
        <ele>185.4</ele>
        <time>2022-09-22T13:55:09Z</time>
      </trkpt>
      <trkpt lat="50.37141" lon="4.47708">
        <ele>184</ele>
        <time>2022-09-22T13:55:14Z</time>
      </trkpt>
      <trkpt lat="50.37143" lon="4.47699">
        <ele>183</ele>
        <time>2022-09-22T13:55:17Z</time>
      </trkpt>
      <trkpt lat="50.37142" lon="4.47696">
        <ele>181.8</ele>
        <time>2022-09-22T13:55:22Z</time>
      </trkpt>
      <trkpt lat="50.37142" lon="4.47688">
        <ele>180</ele>
        <time>2022-09-22T13:55:29Z</time>
      </trkpt>
      <trkpt lat="50.3714" lon="4.47687">
        <ele>179.4</ele>
        <time>2022-09-22T13:55:31Z</time>
      </trkpt>
      <trkpt lat="50.37132" lon="4.47688">
        <ele>178.4</ele>
        <time>2022-09-22T13:55:35Z</time>
      </trkpt>
      <trkpt lat="50.37129" lon="4.47686">
        <ele>178</ele>
        <time>2022-09-22T13:55:36Z</time>
      </trkpt>
      <trkpt lat="50.37123" lon="4.4767">
        <ele>177.2</ele>
        <time>2022-09-22T13:55:40Z</time>
      </trkpt>
      <trkpt lat="50.37116" lon="4.47645">
        <ele>176.2</ele>
        <time>2022-09-22T13:55:44Z</time>
      </trkpt>
      <trkpt lat="50.37105" lon="4.47616">
        <ele>175.4</ele>
        <time>2022-09-22T13:55:50Z</time>
      </trkpt>
      <trkpt lat="50.37098" lon="4.47604">
        <ele>175</ele>
        <time>2022-09-22T13:55:54Z</time>
      </trkpt>
      <trkpt lat="50.37093" lon="4.47582">
        <ele>174.6</ele>
        <time>2022-09-22T13:55:59Z</time>
      </trkpt>
      <trkpt lat="50.37094" lon="4.47558">
        <ele>174.2</ele>
        <time>2022-09-22T13:56:04Z</time>
      </trkpt>
      <trkpt lat="50.37101" lon="4.4753">
        <ele>173.6</ele>
        <time>2022-09-22T13:56:12Z</time>
      </trkpt>
      <trkpt lat="50.37117" lon="4.47504">
        <ele>173.2</ele>
        <time>2022-09-22T13:56:22Z</time>
      </trkpt>
      <trkpt lat="50.37117" lon="4.47502">
        <ele>173.2</ele>
        <time>2022-09-22T13:56:23Z</time>
      </trkpt>
      <trkpt lat="50.37109" lon="4.47477">
        <ele>172</ele>
        <time>2022-09-22T13:56:42Z</time>
      </trkpt>
      <trkpt lat="50.37106" lon="4.47457">
        <ele>171.8</ele>
        <time>2022-09-22T13:56:47Z</time>
      </trkpt>
      <trkpt lat="50.37082" lon="4.47389">
        <ele>170.4</ele>
        <time>2022-09-22T13:57:03Z</time>
      </trkpt>
      <trkpt lat="50.37076" lon="4.47357">
        <ele>170.6</ele>
        <time>2022-09-22T13:57:09Z</time>
      </trkpt>
      <trkpt lat="50.3707" lon="4.47332">
        <ele>170.6</ele>
        <time>2022-09-22T13:57:14Z</time>
      </trkpt>
      <trkpt lat="50.37054" lon="4.47283">
        <ele>172.2</ele>
        <time>2022-09-22T13:57:24Z</time>
      </trkpt>
      <trkpt lat="50.37046" lon="4.4727">
        <ele>174.4</ele>
        <time>2022-09-22T13:57:37Z</time>
      </trkpt>
      <trkpt lat="50.37027" lon="4.47255">
        <ele>183</ele>
        <time>2022-09-22T13:58:17Z</time>
      </trkpt>
      <trkpt lat="50.3702" lon="4.47251">
        <ele>183.6</ele>
        <time>2022-09-22T13:58:19Z</time>
      </trkpt>
      <trkpt lat="50.37013" lon="4.47245">
        <ele>184.2</ele>
        <time>2022-09-22T13:58:21Z</time>
      </trkpt>
      <trkpt lat="50.37004" lon="4.47232">
        <ele>185.2</ele>
        <time>2022-09-22T13:58:25Z</time>
      </trkpt>
      <trkpt lat="50.36989" lon="4.47214">
        <ele>185.8</ele>
        <time>2022-09-22T13:58:30Z</time>
      </trkpt>
      <trkpt lat="50.36984" lon="4.47211">
        <ele>186.4</ele>
        <time>2022-09-22T13:58:33Z</time>
      </trkpt>
      <trkpt lat="50.36959" lon="4.47187">
        <ele>188.2</ele>
        <time>2022-09-22T13:58:41Z</time>
      </trkpt>
      <trkpt lat="50.36947" lon="4.47174">
        <ele>189.4</ele>
        <time>2022-09-22T13:58:46Z</time>
      </trkpt>
      <trkpt lat="50.36903" lon="4.47136">
        <ele>191.6</ele>
        <time>2022-09-22T13:59:00Z</time>
      </trkpt>
      <trkpt lat="50.36874" lon="4.47108">
        <ele>192.6</ele>
        <time>2022-09-22T13:59:10Z</time>
      </trkpt>
      <trkpt lat="50.36866" lon="4.47099">
        <ele>192.8</ele>
        <time>2022-09-22T13:59:15Z</time>
      </trkpt>
      <trkpt lat="50.36868" lon="4.47064">
        <ele>193.2</ele>
        <time>2022-09-22T13:59:24Z</time>
      </trkpt>
      <trkpt lat="50.36866" lon="4.47061">
        <ele>193.4</ele>
        <time>2022-09-22T13:59:25Z</time>
      </trkpt>
      <trkpt lat="50.36861" lon="4.47066">
        <ele>193.4</ele>
        <time>2022-09-22T13:59:28Z</time>
      </trkpt>
      <trkpt lat="50.36864" lon="4.47067">
        <ele>193.4</ele>
        <time>2022-09-22T13:59:31Z</time>
      </trkpt>
      <trkpt lat="50.36866" lon="4.47065">
        <ele>193.4</ele>
        <time>2022-09-22T13:59:32Z</time>
      </trkpt>
      <trkpt lat="50.36872" lon="4.47046">
        <ele>193.6</ele>
        <time>2022-09-22T13:59:36Z</time>
      </trkpt>
      <trkpt lat="50.36875" lon="4.47041">
        <ele>193.6</ele>
        <time>2022-09-22T13:59:37Z</time>
      </trkpt>
      <trkpt lat="50.36882" lon="4.47017">
        <ele>193.8</ele>
        <time>2022-09-22T13:59:41Z</time>
      </trkpt>
      <trkpt lat="50.36881" lon="4.46998">
        <ele>194</ele>
        <time>2022-09-22T13:59:45Z</time>
      </trkpt>
      <trkpt lat="50.36885" lon="4.46977">
        <ele>193.8</ele>
        <time>2022-09-22T13:59:54Z</time>
      </trkpt>
      <trkpt lat="50.36885" lon="4.46978">
        <ele>194</ele>
        <time>2022-09-22T14:00:03Z</time>
      </trkpt>
      <trkpt lat="50.36887" lon="4.46977">
        <ele>193.8</ele>
        <time>2022-09-22T14:00:16Z</time>
      </trkpt>
      <trkpt lat="50.36888" lon="4.46975">
        <ele>193.8</ele>
        <time>2022-09-22T14:00:17Z</time>
      </trkpt>
      <trkpt lat="50.36887" lon="4.46959">
        <ele>193.4</ele>
        <time>2022-09-22T14:00:22Z</time>
      </trkpt>
      <trkpt lat="50.36862" lon="4.46868">
        <ele>193</ele>
        <time>2022-09-22T14:00:42Z</time>
      </trkpt>
      <trkpt lat="50.36862" lon="4.46861">
        <ele>193.6</ele>
        <time>2022-09-22T14:00:44Z</time>
      </trkpt>
      <trkpt lat="50.36867" lon="4.46841">
        <ele>194</ele>
        <time>2022-09-22T14:00:48Z</time>
      </trkpt>
      <trkpt lat="50.36866" lon="4.46828">
        <ele>193.6</ele>
        <time>2022-09-22T14:00:50Z</time>
      </trkpt>
      <trkpt lat="50.36864" lon="4.46822">
        <ele>193.6</ele>
        <time>2022-09-22T14:00:51Z</time>
      </trkpt>
      <trkpt lat="50.36853" lon="4.46807">
        <ele>193.8</ele>
        <time>2022-09-22T14:00:55Z</time>
      </trkpt>
      <trkpt lat="50.36847" lon="4.46796">
        <ele>193.8</ele>
        <time>2022-09-22T14:00:58Z</time>
      </trkpt>
      <trkpt lat="50.36849" lon="4.46751">
        <ele>194.2</ele>
        <time>2022-09-22T14:01:09Z</time>
      </trkpt>
      <trkpt lat="50.36848" lon="4.46728">
        <ele>194.8</ele>
        <time>2022-09-22T14:01:15Z</time>
      </trkpt>
      <trkpt lat="50.3685" lon="4.46697">
        <ele>195.6</ele>
        <time>2022-09-22T14:01:21Z</time>
      </trkpt>
      <trkpt lat="50.36849" lon="4.46663">
        <ele>195.8</ele>
        <time>2022-09-22T14:01:27Z</time>
      </trkpt>
      <trkpt lat="50.36841" lon="4.46631">
        <ele>196.2</ele>
        <time>2022-09-22T14:01:33Z</time>
      </trkpt>
      <trkpt lat="50.36831" lon="4.46601">
        <ele>196.8</ele>
        <time>2022-09-22T14:01:39Z</time>
      </trkpt>
      <trkpt lat="50.36824" lon="4.46457">
        <ele>198</ele>
        <time>2022-09-22T14:02:00Z</time>
      </trkpt>
      <trkpt lat="50.36822" lon="4.46433">
        <ele>198.2</ele>
        <time>2022-09-22T14:02:04Z</time>
      </trkpt>
      <trkpt lat="50.36811" lon="4.4643">
        <ele>198.4</ele>
        <time>2022-09-22T14:02:07Z</time>
      </trkpt>
      <trkpt lat="50.36781" lon="4.4643">
        <ele>198.4</ele>
        <time>2022-09-22T14:02:14Z</time>
      </trkpt>
      <trkpt lat="50.3677" lon="4.46425">
        <ele>198.6</ele>
        <time>2022-09-22T14:02:17Z</time>
      </trkpt>
      <trkpt lat="50.36758" lon="4.46415">
        <ele>198.4</ele>
        <time>2022-09-22T14:02:20Z</time>
      </trkpt>
      <trkpt lat="50.3675" lon="4.46386">
        <ele>198.4</ele>
        <time>2022-09-22T14:02:24Z</time>
      </trkpt>
      <trkpt lat="50.3674" lon="4.46356">
        <ele>198.6</ele>
        <time>2022-09-22T14:02:28Z</time>
      </trkpt>
      <trkpt lat="50.36735" lon="4.46345">
        <ele>197.8</ele>
        <time>2022-09-22T14:02:30Z</time>
      </trkpt>
      <trkpt lat="50.36706" lon="4.46309">
        <ele>198</ele>
        <time>2022-09-22T14:02:38Z</time>
      </trkpt>
      <trkpt lat="50.36681" lon="4.46282">
        <ele>197.6</ele>
        <time>2022-09-22T14:02:44Z</time>
      </trkpt>
      <trkpt lat="50.3666" lon="4.46255">
        <ele>197.4</ele>
        <time>2022-09-22T14:02:49Z</time>
      </trkpt>
      <trkpt lat="50.36656" lon="4.46254">
        <ele>197.4</ele>
        <time>2022-09-22T14:02:50Z</time>
      </trkpt>
      <trkpt lat="50.36648" lon="4.46267">
        <ele>197.2</ele>
        <time>2022-09-22T14:02:53Z</time>
      </trkpt>
      <trkpt lat="50.3663" lon="4.46308">
        <ele>197</ele>
        <time>2022-09-22T14:03:01Z</time>
      </trkpt>
      <trkpt lat="50.36619" lon="4.46326">
        <ele>196.6</ele>
        <time>2022-09-22T14:03:08Z</time>
      </trkpt>
      <trkpt lat="50.36607" lon="4.46339">
        <ele>195.2</ele>
        <time>2022-09-22T14:03:27Z</time>
      </trkpt>
      <trkpt lat="50.36577" lon="4.46334">
        <ele>194.4</ele>
        <time>2022-09-22T14:03:37Z</time>
      </trkpt>
      <trkpt lat="50.36562" lon="4.46333">
        <ele>193.8</ele>
        <time>2022-09-22T14:03:43Z</time>
      </trkpt>
      <trkpt lat="50.36548" lon="4.46334">
        <ele>193.6</ele>
        <time>2022-09-22T14:03:52Z</time>
      </trkpt>
      <trkpt lat="50.36537" lon="4.46331">
        <ele>193.8</ele>
        <time>2022-09-22T14:03:57Z</time>
      </trkpt>
      <trkpt lat="50.36535" lon="4.46332">
        <ele>193.8</ele>
        <time>2022-09-22T14:03:58Z</time>
      </trkpt>
      <trkpt lat="50.36523" lon="4.46321">
        <ele>193.8</ele>
        <time>2022-09-22T14:04:02Z</time>
      </trkpt>
      <trkpt lat="50.36509" lon="4.46304">
        <ele>193.4</ele>
        <time>2022-09-22T14:04:08Z</time>
      </trkpt>
      <trkpt lat="50.36495" lon="4.4629">
        <ele>193</ele>
        <time>2022-09-22T14:04:13Z</time>
      </trkpt>
      <trkpt lat="50.36472" lon="4.46256">
        <ele>191.8</ele>
        <time>2022-09-22T14:04:22Z</time>
      </trkpt>
      <trkpt lat="50.36444" lon="4.46225">
        <ele>190.2</ele>
        <time>2022-09-22T14:04:31Z</time>
      </trkpt>
      <trkpt lat="50.36425" lon="4.46193">
        <ele>188</ele>
        <time>2022-09-22T14:04:40Z</time>
      </trkpt>
      <trkpt lat="50.36413" lon="4.46181">
        <ele>187</ele>
        <time>2022-09-22T14:04:46Z</time>
      </trkpt>
      <trkpt lat="50.36403" lon="4.46176">
        <ele>186</ele>
        <time>2022-09-22T14:04:52Z</time>
      </trkpt>
      <trkpt lat="50.36391" lon="4.46168">
        <ele>185.6</ele>
        <time>2022-09-22T14:04:57Z</time>
      </trkpt>
      <trkpt lat="50.36381" lon="4.4615">
        <ele>185.2</ele>
        <time>2022-09-22T14:05:01Z</time>
      </trkpt>
      <trkpt lat="50.36376" lon="4.46135">
        <ele>184.8</ele>
        <time>2022-09-22T14:05:05Z</time>
      </trkpt>
      <trkpt lat="50.36362" lon="4.46108">
        <ele>183.8</ele>
        <time>2022-09-22T14:05:15Z</time>
      </trkpt>
      <trkpt lat="50.36348" lon="4.46095">
        <ele>182</ele>
        <time>2022-09-22T14:05:40Z</time>
      </trkpt>
      <trkpt lat="50.36345" lon="4.46089">
        <ele>181.8</ele>
        <time>2022-09-22T14:05:43Z</time>
      </trkpt>
      <trkpt lat="50.36336" lon="4.4604">
        <ele>178.6</ele>
        <time>2022-09-22T14:05:56Z</time>
      </trkpt>
      <trkpt lat="50.36318" lon="4.45977">
        <ele>175.6</ele>
        <time>2022-09-22T14:06:07Z</time>
      </trkpt>
      <trkpt lat="50.36315" lon="4.45972">
        <ele>175</ele>
        <time>2022-09-22T14:06:09Z</time>
      </trkpt>
      <trkpt lat="50.36312" lon="4.45956">
        <ele>173.2</ele>
        <time>2022-09-22T14:06:14Z</time>
      </trkpt>
      <trkpt lat="50.36314" lon="4.45951">
        <ele>172.4</ele>
        <time>2022-09-22T14:06:16Z</time>
      </trkpt>
      <trkpt lat="50.36324" lon="4.45948">
        <ele>170.2</ele>
        <time>2022-09-22T14:06:20Z</time>
      </trkpt>
      <trkpt lat="50.36342" lon="4.45946">
        <ele>166.4</ele>
        <time>2022-09-22T14:06:26Z</time>
      </trkpt>
      <trkpt lat="50.36356" lon="4.45942">
        <ele>164</ele>
        <time>2022-09-22T14:06:30Z</time>
      </trkpt>
      <trkpt lat="50.36375" lon="4.45944">
        <ele>161.2</ele>
        <time>2022-09-22T14:06:35Z</time>
      </trkpt>
      <trkpt lat="50.36399" lon="4.45959">
        <ele>157.4</ele>
        <time>2022-09-22T14:06:42Z</time>
      </trkpt>
      <trkpt lat="50.36408" lon="4.45963">
        <ele>156</ele>
        <time>2022-09-22T14:06:44Z</time>
      </trkpt>
      <trkpt lat="50.36417" lon="4.45969">
        <ele>155</ele>
        <time>2022-09-22T14:06:46Z</time>
      </trkpt>
      <trkpt lat="50.3644" lon="4.45979">
        <ele>151.8</ele>
        <time>2022-09-22T14:06:52Z</time>
      </trkpt>
      <trkpt lat="50.36491" lon="4.45976">
        <ele>146.8</ele>
        <time>2022-09-22T14:07:04Z</time>
      </trkpt>
      <trkpt lat="50.36553" lon="4.45978">
        <ele>142.8</ele>
        <time>2022-09-22T14:07:18Z</time>
      </trkpt>
      <trkpt lat="50.36579" lon="4.45981">
        <ele>141.2</ele>
        <time>2022-09-22T14:07:23Z</time>
      </trkpt>
      <trkpt lat="50.36619" lon="4.45976">
        <ele>139.4</ele>
        <time>2022-09-22T14:07:30Z</time>
      </trkpt>
      <trkpt lat="50.36678" lon="4.45955">
        <ele>136.2</ele>
        <time>2022-09-22T14:07:40Z</time>
      </trkpt>
      <trkpt lat="50.36706" lon="4.45948">
        <ele>134.4</ele>
        <time>2022-09-22T14:07:45Z</time>
      </trkpt>
      <trkpt lat="50.36718" lon="4.45949">
        <ele>133.8</ele>
        <time>2022-09-22T14:07:47Z</time>
      </trkpt>
      <trkpt lat="50.36758" lon="4.45956">
        <ele>130.8</ele>
        <time>2022-09-22T14:07:53Z</time>
      </trkpt>
      <trkpt lat="50.36771" lon="4.45955">
        <ele>130</ele>
        <time>2022-09-22T14:07:55Z</time>
      </trkpt>
      <trkpt lat="50.36782" lon="4.45948">
        <ele>128.8</ele>
        <time>2022-09-22T14:07:57Z</time>
      </trkpt>
      <trkpt lat="50.3681" lon="4.45921">
        <ele>125.4</ele>
        <time>2022-09-22T14:08:05Z</time>
      </trkpt>
      <trkpt lat="50.36812" lon="4.45918">
        <ele>124.8</ele>
        <time>2022-09-22T14:08:06Z</time>
      </trkpt>
      <trkpt lat="50.36836" lon="4.45902">
        <ele>122</ele>
        <time>2022-09-22T14:08:12Z</time>
      </trkpt>
      <trkpt lat="50.36865" lon="4.45887">
        <ele>119.2</ele>
        <time>2022-09-22T14:08:17Z</time>
      </trkpt>
      <trkpt lat="50.36908" lon="4.45873">
        <ele>116.2</ele>
        <time>2022-09-22T14:08:24Z</time>
      </trkpt>
      <trkpt lat="50.36938" lon="4.45865">
        <ele>113.4</ele>
        <time>2022-09-22T14:08:30Z</time>
      </trkpt>
      <trkpt lat="50.36949" lon="4.45867">
        <ele>111.4</ele>
        <time>2022-09-22T14:08:34Z</time>
      </trkpt>
      <trkpt lat="50.36961" lon="4.45867">
        <ele>109.6</ele>
        <time>2022-09-22T14:08:38Z</time>
      </trkpt>
      <trkpt lat="50.37033" lon="4.45827">
        <ele>101</ele>
        <time>2022-09-22T14:08:56Z</time>
      </trkpt>
      <trkpt lat="50.37061" lon="4.45831">
        <ele>98.2</ele>
        <time>2022-09-22T14:09:02Z</time>
      </trkpt>
      <trkpt lat="50.37072" lon="4.45836">
        <ele>96.6</ele>
        <time>2022-09-22T14:09:05Z</time>
      </trkpt>
      <trkpt lat="50.37129" lon="4.45867">
        <ele>90.4</ele>
        <time>2022-09-22T14:09:19Z</time>
      </trkpt>
      <trkpt lat="50.3716" lon="4.45873">
        <ele>86.8</ele>
        <time>2022-09-22T14:09:27Z</time>
      </trkpt>
      <trkpt lat="50.37172" lon="4.4588">
        <ele>86.2</ele>
        <time>2022-09-22T14:09:31Z</time>
      </trkpt>
      <trkpt lat="50.3719" lon="4.45883">
        <ele>84</ele>
        <time>2022-09-22T14:09:38Z</time>
      </trkpt>
      <trkpt lat="50.37209" lon="4.45881">
        <ele>83.4</ele>
        <time>2022-09-22T14:09:45Z</time>
      </trkpt>
      <trkpt lat="50.37221" lon="4.45878">
        <ele>84.8</ele>
        <time>2022-09-22T14:09:50Z</time>
      </trkpt>
      <trkpt lat="50.37241" lon="4.45869">
        <ele>87.2</ele>
        <time>2022-09-22T14:09:56Z</time>
      </trkpt>
      <trkpt lat="50.37246" lon="4.4587">
        <ele>88.8</ele>
        <time>2022-09-22T14:09:59Z</time>
      </trkpt>
      <trkpt lat="50.37257" lon="4.45878">
        <ele>90</ele>
        <time>2022-09-22T14:10:03Z</time>
      </trkpt>
      <trkpt lat="50.37275" lon="4.45876">
        <ele>91.8</ele>
        <time>2022-09-22T14:10:07Z</time>
      </trkpt>
      <trkpt lat="50.37281" lon="4.45868">
        <ele>92.8</ele>
        <time>2022-09-22T14:10:09Z</time>
      </trkpt>
      <trkpt lat="50.37281" lon="4.45864">
        <ele>93.2</ele>
        <time>2022-09-22T14:10:10Z</time>
      </trkpt>
      <trkpt lat="50.373" lon="4.45839">
        <ele>96</ele>
        <time>2022-09-22T14:10:15Z</time>
      </trkpt>
      <trkpt lat="50.37318" lon="4.4579">
        <ele>100.2</ele>
        <time>2022-09-22T14:10:24Z</time>
      </trkpt>
      <trkpt lat="50.3732" lon="4.45762">
        <ele>102.8</ele>
        <time>2022-09-22T14:10:29Z</time>
      </trkpt>
      <trkpt lat="50.37327" lon="4.45754">
        <ele>103.6</ele>
        <time>2022-09-22T14:10:31Z</time>
      </trkpt>
      <trkpt lat="50.37355" lon="4.45733">
        <ele>106.4</ele>
        <time>2022-09-22T14:10:38Z</time>
      </trkpt>
      <trkpt lat="50.37358" lon="4.45729">
        <ele>106.8</ele>
        <time>2022-09-22T14:10:39Z</time>
      </trkpt>
      <trkpt lat="50.37362" lon="4.45717">
        <ele>107.8</ele>
        <time>2022-09-22T14:10:41Z</time>
      </trkpt>
      <trkpt lat="50.37357" lon="4.45686">
        <ele>109.8</ele>
        <time>2022-09-22T14:10:46Z</time>
      </trkpt>
      <trkpt lat="50.3735" lon="4.4566">
        <ele>112</ele>
        <time>2022-09-22T14:10:51Z</time>
      </trkpt>
      <trkpt lat="50.37339" lon="4.45604">
        <ele>115.6</ele>
        <time>2022-09-22T14:11:02Z</time>
      </trkpt>
      <trkpt lat="50.37334" lon="4.45585">
        <ele>117.2</ele>
        <time>2022-09-22T14:11:07Z</time>
      </trkpt>
      <trkpt lat="50.37331" lon="4.45579">
        <ele>117.6</ele>
        <time>2022-09-22T14:11:09Z</time>
      </trkpt>
      <trkpt lat="50.37323" lon="4.45547">
        <ele>119.6</ele>
        <time>2022-09-22T14:11:18Z</time>
      </trkpt>
      <trkpt lat="50.37321" lon="4.45546">
        <ele>120</ele>
        <time>2022-09-22T14:11:20Z</time>
      </trkpt>
      <trkpt lat="50.37321" lon="4.45545">
        <ele>130</ele>
        <time>2022-09-22T14:12:20Z</time>
      </trkpt>
      <trkpt lat="50.37319" lon="4.45545">
        <ele>137.2</ele>
        <time>2022-09-22T14:14:12Z</time>
      </trkpt>
      <trkpt lat="50.37313" lon="4.45531">
        <ele>139.2</ele>
        <time>2022-09-22T14:14:44Z</time>
      </trkpt>
      <trkpt lat="50.37314" lon="4.45517">
        <ele>139.8</ele>
        <time>2022-09-22T14:14:48Z</time>
      </trkpt>
      <trkpt lat="50.3732" lon="4.45501">
        <ele>140.4</ele>
        <time>2022-09-22T14:14:52Z</time>
      </trkpt>
      <trkpt lat="50.37336" lon="4.45478">
        <ele>140.4</ele>
        <time>2022-09-22T14:14:58Z</time>
      </trkpt>
      <trkpt lat="50.37347" lon="4.45458">
        <ele>140.6</ele>
        <time>2022-09-22T14:15:03Z</time>
      </trkpt>
      <trkpt lat="50.37369" lon="4.45413">
        <ele>141.6</ele>
        <time>2022-09-22T14:15:12Z</time>
      </trkpt>
      <trkpt lat="50.37381" lon="4.45396">
        <ele>142.8</ele>
        <time>2022-09-22T14:15:16Z</time>
      </trkpt>
      <trkpt lat="50.37396" lon="4.4538">
        <ele>143.6</ele>
        <time>2022-09-22T14:15:20Z</time>
      </trkpt>
      <trkpt lat="50.37405" lon="4.45372">
        <ele>144.2</ele>
        <time>2022-09-22T14:15:22Z</time>
      </trkpt>
      <trkpt lat="50.3742" lon="4.45362">
        <ele>144.6</ele>
        <time>2022-09-22T14:15:25Z</time>
      </trkpt>
      <trkpt lat="50.37435" lon="4.45356">
        <ele>144.8</ele>
        <time>2022-09-22T14:15:28Z</time>
      </trkpt>
      <trkpt lat="50.37458" lon="4.45353">
        <ele>145</ele>
        <time>2022-09-22T14:15:32Z</time>
      </trkpt>
      <trkpt lat="50.37485" lon="4.45335">
        <ele>145.2</ele>
        <time>2022-09-22T14:15:36Z</time>
      </trkpt>
      <trkpt lat="50.37515" lon="4.45317">
        <ele>145.6</ele>
        <time>2022-09-22T14:15:40Z</time>
      </trkpt>
      <trkpt lat="50.37523" lon="4.45314">
        <ele>145.8</ele>
        <time>2022-09-22T14:15:41Z</time>
      </trkpt>
      <trkpt lat="50.37556" lon="4.4531">
        <ele>146.4</ele>
        <time>2022-09-22T14:15:45Z</time>
      </trkpt>
      <trkpt lat="50.37584" lon="4.45309">
        <ele>146.2</ele>
        <time>2022-09-22T14:15:49Z</time>
      </trkpt>
      <trkpt lat="50.376" lon="4.4531">
        <ele>146.4</ele>
        <time>2022-09-22T14:15:52Z</time>
      </trkpt>
      <trkpt lat="50.37639" lon="4.45324">
        <ele>147.4</ele>
        <time>2022-09-22T14:15:59Z</time>
      </trkpt>
      <trkpt lat="50.37709" lon="4.45353">
        <ele>148.4</ele>
        <time>2022-09-22T14:16:14Z</time>
      </trkpt>
      <trkpt lat="50.37753" lon="4.45368">
        <ele>148.6</ele>
        <time>2022-09-22T14:16:21Z</time>
      </trkpt>
      <trkpt lat="50.37799" lon="4.45387">
        <ele>148.6</ele>
        <time>2022-09-22T14:16:29Z</time>
      </trkpt>
      <trkpt lat="50.37812" lon="4.45391">
        <ele>148.6</ele>
        <time>2022-09-22T14:16:33Z</time>
      </trkpt>
      <trkpt lat="50.37824" lon="4.45391">
        <ele>148.6</ele>
        <time>2022-09-22T14:16:36Z</time>
      </trkpt>
      <trkpt lat="50.37848" lon="4.454">
        <ele>148.6</ele>
        <time>2022-09-22T14:16:41Z</time>
      </trkpt>
      <trkpt lat="50.37857" lon="4.45402">
        <ele>148.6</ele>
        <time>2022-09-22T14:16:43Z</time>
      </trkpt>
      <trkpt lat="50.3789" lon="4.45417">
        <ele>149.4</ele>
        <time>2022-09-22T14:16:52Z</time>
      </trkpt>
      <trkpt lat="50.37911" lon="4.45424">
        <ele>150</ele>
        <time>2022-09-22T14:16:57Z</time>
      </trkpt>
      <trkpt lat="50.37927" lon="4.45427">
        <ele>150.8</ele>
        <time>2022-09-22T14:17:01Z</time>
      </trkpt>
      <trkpt lat="50.37967" lon="4.45444">
        <ele>151.8</ele>
        <time>2022-09-22T14:17:11Z</time>
      </trkpt>
      <trkpt lat="50.37987" lon="4.45445">
        <ele>152.4</ele>
        <time>2022-09-22T14:17:16Z</time>
      </trkpt>
      <trkpt lat="50.38001" lon="4.45454">
        <ele>152.8</ele>
        <time>2022-09-22T14:17:20Z</time>
      </trkpt>
      <trkpt lat="50.38018" lon="4.45461">
        <ele>153</ele>
        <time>2022-09-22T14:17:24Z</time>
      </trkpt>
      <trkpt lat="50.38037" lon="4.45471">
        <ele>153.6</ele>
        <time>2022-09-22T14:17:29Z</time>
      </trkpt>
      <trkpt lat="50.38058" lon="4.45477">
        <ele>154.2</ele>
        <time>2022-09-22T14:17:35Z</time>
      </trkpt>
      <trkpt lat="50.38123" lon="4.45503">
        <ele>155.8</ele>
        <time>2022-09-22T14:17:52Z</time>
      </trkpt>
      <trkpt lat="50.38225" lon="4.45544">
        <ele>155</ele>
        <time>2022-09-22T14:18:24Z</time>
      </trkpt>
      <trkpt lat="50.38248" lon="4.45555">
        <ele>154.6</ele>
        <time>2022-09-22T14:18:28Z</time>
      </trkpt>
      <trkpt lat="50.38266" lon="4.45565">
        <ele>150.8</ele>
      </trkpt>
      <trkpt lat="50.38277" lon="4.45594">
        <ele>154</ele>
        <time>2022-09-22T14:18:34Z</time>
      </trkpt>
      <trkpt lat="50.38305" lon="4.45643">
        <ele>153.2</ele>
        <time>2022-09-22T14:18:41Z</time>
      </trkpt>
      <trkpt lat="50.38326" lon="4.45683">
        <ele>152.6</ele>
        <time>2022-09-22T14:18:48Z</time>
      </trkpt>
      <trkpt lat="50.38355" lon="4.4567">
        <ele>151.8</ele>
        <time>2022-09-22T14:18:53Z</time>
      </trkpt>
      <trkpt lat="50.384" lon="4.45652">
        <ele>150.2</ele>
        <time>2022-09-22T14:18:59Z</time>
      </trkpt>
      <trkpt lat="50.38446" lon="4.45639">
        <ele>147.6</ele>
        <time>2022-09-22T14:19:09Z</time>
      </trkpt>
      <trkpt lat="50.38455" lon="4.45638">
        <ele>146.6</ele>
        <time>2022-09-22T14:19:13Z</time>
      </trkpt>
      <trkpt lat="50.3848" lon="4.45623">
        <ele>145</ele>
        <time>2022-09-22T14:19:22Z</time>
      </trkpt>
      <trkpt lat="50.38507" lon="4.45614">
        <ele>144</ele>
        <time>2022-09-22T14:19:27Z</time>
      </trkpt>
      <trkpt lat="50.38548" lon="4.45598">
        <ele>142.6</ele>
        <time>2022-09-22T14:19:33Z</time>
      </trkpt>
      <trkpt lat="50.38573" lon="4.45591">
        <ele>141.4</ele>
        <time>2022-09-22T14:19:37Z</time>
      </trkpt>
      <trkpt lat="50.38588" lon="4.45589">
        <ele>140.6</ele>
        <time>2022-09-22T14:19:40Z</time>
      </trkpt>
      <trkpt lat="50.38599" lon="4.45589">
        <ele>140</ele>
        <time>2022-09-22T14:19:42Z</time>
      </trkpt>
      <trkpt lat="50.38644" lon="4.45598">
        <ele>138.2</ele>
        <time>2022-09-22T14:19:50Z</time>
      </trkpt>
      <trkpt lat="50.38716" lon="4.45616">
        <ele>135.8</ele>
        <time>2022-09-22T14:20:03Z</time>
      </trkpt>
      <trkpt lat="50.38819" lon="4.45637">
        <ele>132</ele>
        <time>2022-09-22T14:20:20Z</time>
      </trkpt>
      <trkpt lat="50.38955" lon="4.45671">
        <ele>119.6</ele>
        <time>2022-09-22T14:20:51Z</time>
      </trkpt>
      <trkpt lat="50.38977" lon="4.45671">
        <ele>119</ele>
      </trkpt>
      <trkpt lat="50.3899" lon="4.45672">
        <ele>118.9</ele>
      </trkpt>
      <trkpt lat="50.39016" lon="4.45711">
        <ele>118</ele>
      </trkpt>
    </trkseg>
  </trk>
</gpx>